<?xml version="1.0" encoding="UTF-8" standalone="no" ?>
<gpx xmlns="http://www.topografix.com/GPX/1/1" xmlns:xsi="http://www.w3.org/2001/XMLSchema-instance" xsi:schemaLocation="http://www.topografix.com/GPX/1/1 http://www.topografix.com/GPX/1/1/gpx.xsd" version="1.1" creator="VisuGPX - https://www.visugpx.com">
  <metadata>
    <name>petite balade </name>
    <desc><![CDATA[2h00 de petite balade d'automne ]]></desc>
  </metadata>
  <wpt lat="47.4302" lon="6.79578">
    <ele>499.46</ele>
    <name><![CDATA[WPT_0000002]]></name>
    <desc><![CDATA[]]></desc>
    <type><![CDATA[Photo]]></type>
  </wpt>
  <trk>
    <name><![CDATA[2016-11-13 09:01]]></name>
    <desc><![CDATA[<p>Heure de départ: 11/13/2016 09:02</p><p>Heure d'arrivée: 11/13/2016 10:56</p><p>Distance: 25,4 km (01:54)</p><p>Temps déplacement: 01:42</p><p>Vitesse moyenne: 13,3 km/h</p><p>Vitesse moyenne mouv.: 14,92 km/h</p><p>Vitesse Max.: 55,61km/h</p><p>Altitude minimale: 331 m</p><p>Altitude maximale: 608 m</p><p>Vitesse de montée: 557,2 m/h</p><p>Vitesse de descente: -838,2 m/h</p><p>Gain d'altitude: 545 m</p><p>Perte d'altitude: -558 m</p><p>Temps de montée: 00:58</p><p>Temps de descente: 00:39</p><hr align="center" width="480" style="height: 2px; width: 517px"/>]]></desc>
    <trkseg>
      <trkpt lat="47.41391" lon="6.78428">
        <ele>359.24</ele>
        <time>2016-11-13T08:02:00Z</time>
      </trkpt>
      <trkpt lat="47.41406" lon="6.78412">
        <ele>342.27</ele>
        <time>2016-11-13T08:03:13Z</time>
      </trkpt>
      <trkpt lat="47.41411" lon="6.78438">
        <ele>342.61</ele>
        <time>2016-11-13T08:05:12Z</time>
      </trkpt>
      <trkpt lat="47.41429" lon="6.78441">
        <ele>342.42</ele>
        <time>2016-11-13T08:05:30Z</time>
      </trkpt>
      <trkpt lat="47.41439" lon="6.78419">
        <ele>342.64</ele>
        <time>2016-11-13T08:05:38Z</time>
      </trkpt>
      <trkpt lat="47.41446" lon="6.78393">
        <ele>343.41</ele>
        <time>2016-11-13T08:05:46Z</time>
      </trkpt>
      <trkpt lat="47.41454" lon="6.78366">
        <ele>343.68</ele>
        <time>2016-11-13T08:05:54Z</time>
      </trkpt>
      <trkpt lat="47.41461" lon="6.7834">
        <ele>344.06</ele>
        <time>2016-11-13T08:06:01Z</time>
      </trkpt>
      <trkpt lat="47.41469" lon="6.78313">
        <ele>344.95</ele>
        <time>2016-11-13T08:06:08Z</time>
      </trkpt>
      <trkpt lat="47.41476" lon="6.78286">
        <ele>346.06</ele>
        <time>2016-11-13T08:06:14Z</time>
      </trkpt>
      <trkpt lat="47.41483" lon="6.78258">
        <ele>347.01</ele>
        <time>2016-11-13T08:06:20Z</time>
      </trkpt>
      <trkpt lat="47.4149" lon="6.7823">
        <ele>348.05</ele>
        <time>2016-11-13T08:06:26Z</time>
      </trkpt>
      <trkpt lat="47.41496" lon="6.78201">
        <ele>348.78</ele>
        <time>2016-11-13T08:06:32Z</time>
      </trkpt>
      <trkpt lat="47.41501" lon="6.78171">
        <ele>349.43</ele>
        <time>2016-11-13T08:06:38Z</time>
      </trkpt>
      <trkpt lat="47.41485" lon="6.78151">
        <ele>349.86</ele>
        <time>2016-11-13T08:06:44Z</time>
      </trkpt>
      <trkpt lat="47.41467" lon="6.78141">
        <ele>350.05</ele>
        <time>2016-11-13T08:06:49Z</time>
      </trkpt>
      <trkpt lat="47.41451" lon="6.78129">
        <ele>350.43</ele>
        <time>2016-11-13T08:06:54Z</time>
      </trkpt>
      <trkpt lat="47.41434" lon="6.78113">
        <ele>350.4</ele>
        <time>2016-11-13T08:06:59Z</time>
      </trkpt>
      <trkpt lat="47.41416" lon="6.781">
        <ele>350.69</ele>
        <time>2016-11-13T08:07:04Z</time>
      </trkpt>
      <trkpt lat="47.41399" lon="6.78084">
        <ele>352.65</ele>
        <time>2016-11-13T08:07:09Z</time>
      </trkpt>
      <trkpt lat="47.41379" lon="6.78073">
        <ele>351.67</ele>
        <time>2016-11-13T08:07:14Z</time>
      </trkpt>
      <trkpt lat="47.41376" lon="6.78042">
        <ele>350.43</ele>
        <time>2016-11-13T08:07:21Z</time>
      </trkpt>
      <trkpt lat="47.41369" lon="6.78017">
        <ele>349.72</ele>
        <time>2016-11-13T08:07:25Z</time>
      </trkpt>
      <trkpt lat="47.41362" lon="6.77988">
        <ele>349.63</ele>
        <time>2016-11-13T08:07:30Z</time>
      </trkpt>
      <trkpt lat="47.41361" lon="6.77958">
        <ele>349.45</ele>
        <time>2016-11-13T08:07:35Z</time>
      </trkpt>
      <trkpt lat="47.41365" lon="6.77927">
        <ele>347.54</ele>
        <time>2016-11-13T08:07:40Z</time>
      </trkpt>
      <trkpt lat="47.4137" lon="6.77897">
        <ele>346.44</ele>
        <time>2016-11-13T08:07:45Z</time>
      </trkpt>
      <trkpt lat="47.41381" lon="6.77871">
        <ele>347.09</ele>
        <time>2016-11-13T08:07:50Z</time>
      </trkpt>
      <trkpt lat="47.41393" lon="6.77843">
        <ele>347.38</ele>
        <time>2016-11-13T08:07:55Z</time>
      </trkpt>
      <trkpt lat="47.41405" lon="6.77816">
        <ele>348.56</ele>
        <time>2016-11-13T08:08:00Z</time>
      </trkpt>
      <trkpt lat="47.41416" lon="6.7779">
        <ele>349.51</ele>
        <time>2016-11-13T08:08:05Z</time>
      </trkpt>
      <trkpt lat="47.41427" lon="6.77765">
        <ele>350.02</ele>
        <time>2016-11-13T08:08:10Z</time>
      </trkpt>
      <trkpt lat="47.41436" lon="6.7774">
        <ele>349.72</ele>
        <time>2016-11-13T08:08:15Z</time>
      </trkpt>
      <trkpt lat="47.41445" lon="6.77715">
        <ele>350.3</ele>
        <time>2016-11-13T08:08:25Z</time>
      </trkpt>
      <trkpt lat="47.41448" lon="6.77689">
        <ele>353.51</ele>
        <time>2016-11-13T08:08:30Z</time>
      </trkpt>
      <trkpt lat="47.41455" lon="6.77661">
        <ele>353.53</ele>
        <time>2016-11-13T08:08:36Z</time>
      </trkpt>
      <trkpt lat="47.41465" lon="6.77632">
        <ele>353.32</ele>
        <time>2016-11-13T08:08:42Z</time>
      </trkpt>
      <trkpt lat="47.41479" lon="6.77611">
        <ele>352.72</ele>
        <time>2016-11-13T08:08:48Z</time>
      </trkpt>
      <trkpt lat="47.41499" lon="6.77604">
        <ele>347.99</ele>
        <time>2016-11-13T08:08:53Z</time>
      </trkpt>
      <trkpt lat="47.41518" lon="6.77601">
        <ele>346.67</ele>
        <time>2016-11-13T08:08:57Z</time>
      </trkpt>
      <trkpt lat="47.41539" lon="6.77601">
        <ele>346.02</ele>
        <time>2016-11-13T08:09:02Z</time>
      </trkpt>
      <trkpt lat="47.41559" lon="6.77602">
        <ele>347.36</ele>
        <time>2016-11-13T08:09:07Z</time>
      </trkpt>
      <trkpt lat="47.4158" lon="6.77605">
        <ele>347.82</ele>
        <time>2016-11-13T08:09:12Z</time>
      </trkpt>
      <trkpt lat="47.41601" lon="6.77611">
        <ele>347.86</ele>
        <time>2016-11-13T08:09:17Z</time>
      </trkpt>
      <trkpt lat="47.41622" lon="6.77622">
        <ele>348.2</ele>
        <time>2016-11-13T08:09:22Z</time>
      </trkpt>
      <trkpt lat="47.41643" lon="6.77635">
        <ele>348.19</ele>
        <time>2016-11-13T08:09:27Z</time>
      </trkpt>
      <trkpt lat="47.4166" lon="6.77653">
        <ele>348.37</ele>
        <time>2016-11-13T08:09:32Z</time>
      </trkpt>
      <trkpt lat="47.41678" lon="6.77669">
        <ele>348.93</ele>
        <time>2016-11-13T08:09:37Z</time>
      </trkpt>
      <trkpt lat="47.41697" lon="6.77676">
        <ele>350.39</ele>
        <time>2016-11-13T08:09:42Z</time>
      </trkpt>
      <trkpt lat="47.41716" lon="6.7767">
        <ele>351.18</ele>
        <time>2016-11-13T08:09:47Z</time>
      </trkpt>
      <trkpt lat="47.41735" lon="6.7766">
        <ele>351.47</ele>
        <time>2016-11-13T08:09:53Z</time>
      </trkpt>
      <trkpt lat="47.41753" lon="6.77651">
        <ele>351.86</ele>
        <time>2016-11-13T08:09:59Z</time>
      </trkpt>
      <trkpt lat="47.41771" lon="6.77644">
        <ele>352.19</ele>
        <time>2016-11-13T08:10:05Z</time>
      </trkpt>
      <trkpt lat="47.4179" lon="6.77635">
        <ele>352.75</ele>
        <time>2016-11-13T08:10:11Z</time>
      </trkpt>
      <trkpt lat="47.41808" lon="6.77623">
        <ele>353.34</ele>
        <time>2016-11-13T08:10:16Z</time>
      </trkpt>
      <trkpt lat="47.41823" lon="6.77605">
        <ele>353.87</ele>
        <time>2016-11-13T08:10:21Z</time>
      </trkpt>
      <trkpt lat="47.41835" lon="6.77582">
        <ele>354.81</ele>
        <time>2016-11-13T08:10:27Z</time>
      </trkpt>
      <trkpt lat="47.41845" lon="6.77557">
        <ele>355.82</ele>
        <time>2016-11-13T08:10:33Z</time>
      </trkpt>
      <trkpt lat="47.41853" lon="6.77529">
        <ele>357.16</ele>
        <time>2016-11-13T08:10:40Z</time>
      </trkpt>
      <trkpt lat="47.41861" lon="6.77504">
        <ele>358.17</ele>
        <time>2016-11-13T08:10:46Z</time>
      </trkpt>
      <trkpt lat="47.41872" lon="6.77528">
        <ele>360.28</ele>
        <time>2016-11-13T08:11:01Z</time>
      </trkpt>
      <trkpt lat="47.4187" lon="6.77558">
        <ele>360.99</ele>
        <time>2016-11-13T08:11:07Z</time>
      </trkpt>
      <trkpt lat="47.41868" lon="6.77588">
        <ele>361.65</ele>
        <time>2016-11-13T08:11:13Z</time>
      </trkpt>
      <trkpt lat="47.41867" lon="6.77616">
        <ele>362.44</ele>
        <time>2016-11-13T08:11:19Z</time>
      </trkpt>
      <trkpt lat="47.41878" lon="6.7764">
        <ele>364.59</ele>
        <time>2016-11-13T08:11:25Z</time>
      </trkpt>
      <trkpt lat="47.41899" lon="6.7764">
        <ele>365.47</ele>
        <time>2016-11-13T08:11:31Z</time>
      </trkpt>
      <trkpt lat="47.41918" lon="6.77652">
        <ele>367.95</ele>
        <time>2016-11-13T08:11:37Z</time>
      </trkpt>
      <trkpt lat="47.41936" lon="6.77659">
        <ele>369.2</ele>
        <time>2016-11-13T08:11:43Z</time>
      </trkpt>
      <trkpt lat="47.41953" lon="6.77668">
        <ele>369.65</ele>
        <time>2016-11-13T08:11:47Z</time>
      </trkpt>
      <trkpt lat="47.41975" lon="6.77668">
        <ele>374.41</ele>
        <time>2016-11-13T08:11:52Z</time>
      </trkpt>
      <trkpt lat="47.41997" lon="6.77664">
        <ele>375.52</ele>
        <time>2016-11-13T08:11:57Z</time>
      </trkpt>
      <trkpt lat="47.42017" lon="6.77656">
        <ele>375.48</ele>
        <time>2016-11-13T08:12:01Z</time>
      </trkpt>
      <trkpt lat="47.42038" lon="6.77654">
        <ele>375.15</ele>
        <time>2016-11-13T08:12:05Z</time>
      </trkpt>
      <trkpt lat="47.42057" lon="6.77658">
        <ele>374.46</ele>
        <time>2016-11-13T08:12:09Z</time>
      </trkpt>
      <trkpt lat="47.42074" lon="6.77667">
        <ele>374.22</ele>
        <time>2016-11-13T08:12:13Z</time>
      </trkpt>
      <trkpt lat="47.42094" lon="6.77671">
        <ele>375.63</ele>
        <time>2016-11-13T08:12:17Z</time>
      </trkpt>
      <trkpt lat="47.42114" lon="6.77671">
        <ele>374.83</ele>
        <time>2016-11-13T08:12:21Z</time>
      </trkpt>
      <trkpt lat="47.42134" lon="6.77672">
        <ele>373.63</ele>
        <time>2016-11-13T08:12:25Z</time>
      </trkpt>
      <trkpt lat="47.42156" lon="6.77673">
        <ele>374.21</ele>
        <time>2016-11-13T08:12:29Z</time>
      </trkpt>
      <trkpt lat="47.42177" lon="6.77673">
        <ele>374.19</ele>
        <time>2016-11-13T08:12:33Z</time>
      </trkpt>
      <trkpt lat="47.42198" lon="6.77672">
        <ele>375.37</ele>
        <time>2016-11-13T08:12:37Z</time>
      </trkpt>
      <trkpt lat="47.4222" lon="6.77674">
        <ele>373.96</ele>
        <time>2016-11-13T08:12:41Z</time>
      </trkpt>
      <trkpt lat="47.42244" lon="6.7767">
        <ele>373.55</ele>
        <time>2016-11-13T08:12:45Z</time>
      </trkpt>
      <trkpt lat="47.42258" lon="6.77649">
        <ele>373.77</ele>
        <time>2016-11-13T08:12:48Z</time>
      </trkpt>
      <trkpt lat="47.42261" lon="6.77614">
        <ele>374.53</ele>
        <time>2016-11-13T08:12:52Z</time>
      </trkpt>
      <trkpt lat="47.4228" lon="6.77614">
        <ele>373.12</ele>
        <time>2016-11-13T08:13:02Z</time>
      </trkpt>
      <trkpt lat="47.42293" lon="6.77639">
        <ele>368.52</ele>
        <time>2016-11-13T08:13:06Z</time>
      </trkpt>
      <trkpt lat="47.42306" lon="6.77659">
        <ele>366.84</ele>
        <time>2016-11-13T08:13:09Z</time>
      </trkpt>
      <trkpt lat="47.42324" lon="6.77673">
        <ele>365.88</ele>
        <time>2016-11-13T08:13:14Z</time>
      </trkpt>
      <trkpt lat="47.42337" lon="6.777">
        <ele>362.2</ele>
        <time>2016-11-13T08:13:18Z</time>
      </trkpt>
      <trkpt lat="47.42355" lon="6.77709">
        <ele>358.29</ele>
        <time>2016-11-13T08:13:21Z</time>
      </trkpt>
      <trkpt lat="47.42374" lon="6.7771">
        <ele>356.92</ele>
        <time>2016-11-13T08:13:24Z</time>
      </trkpt>
      <trkpt lat="47.42394" lon="6.77711">
        <ele>355.86</ele>
        <time>2016-11-13T08:13:27Z</time>
      </trkpt>
      <trkpt lat="47.42412" lon="6.77707">
        <ele>354.92</ele>
        <time>2016-11-13T08:13:30Z</time>
      </trkpt>
      <trkpt lat="47.4243" lon="6.77706">
        <ele>354.08</ele>
        <time>2016-11-13T08:13:33Z</time>
      </trkpt>
      <trkpt lat="47.42448" lon="6.77703">
        <ele>353.82</ele>
        <time>2016-11-13T08:13:43Z</time>
      </trkpt>
      <trkpt lat="47.4247" lon="6.77699">
        <ele>354.26</ele>
        <time>2016-11-13T08:13:51Z</time>
      </trkpt>
      <trkpt lat="47.4249" lon="6.77694">
        <ele>354.54</ele>
        <time>2016-11-13T08:13:57Z</time>
      </trkpt>
      <trkpt lat="47.4251" lon="6.77694">
        <ele>354.5</ele>
        <time>2016-11-13T08:14:03Z</time>
      </trkpt>
      <trkpt lat="47.42531" lon="6.77696">
        <ele>354.52</ele>
        <time>2016-11-13T08:14:08Z</time>
      </trkpt>
      <trkpt lat="47.4255" lon="6.77698">
        <ele>351.86</ele>
        <time>2016-11-13T08:14:12Z</time>
      </trkpt>
      <trkpt lat="47.42568" lon="6.77699">
        <ele>349.96</ele>
        <time>2016-11-13T08:14:15Z</time>
      </trkpt>
      <trkpt lat="47.42586" lon="6.77705">
        <ele>350.43</ele>
        <time>2016-11-13T08:14:18Z</time>
      </trkpt>
      <trkpt lat="47.42604" lon="6.77706">
        <ele>350.13</ele>
        <time>2016-11-13T08:14:21Z</time>
      </trkpt>
      <trkpt lat="47.42624" lon="6.77702">
        <ele>349.95</ele>
        <time>2016-11-13T08:14:25Z</time>
      </trkpt>
      <trkpt lat="47.42644" lon="6.77704">
        <ele>350.14</ele>
        <time>2016-11-13T08:14:30Z</time>
      </trkpt>
      <trkpt lat="47.42662" lon="6.7771">
        <ele>350.3</ele>
        <time>2016-11-13T08:14:34Z</time>
      </trkpt>
      <trkpt lat="47.42683" lon="6.77707">
        <ele>350.31</ele>
        <time>2016-11-13T08:14:38Z</time>
      </trkpt>
      <trkpt lat="47.42701" lon="6.77715">
        <ele>350.61</ele>
        <time>2016-11-13T08:14:43Z</time>
      </trkpt>
      <trkpt lat="47.42719" lon="6.77722">
        <ele>350.98</ele>
        <time>2016-11-13T08:14:49Z</time>
      </trkpt>
      <trkpt lat="47.42738" lon="6.77729">
        <ele>351.34</ele>
        <time>2016-11-13T08:14:54Z</time>
      </trkpt>
      <trkpt lat="47.42757" lon="6.77729">
        <ele>351.89</ele>
        <time>2016-11-13T08:15:00Z</time>
      </trkpt>
      <trkpt lat="47.42774" lon="6.77741">
        <ele>352.14</ele>
        <time>2016-11-13T08:15:06Z</time>
      </trkpt>
      <trkpt lat="47.42792" lon="6.77742">
        <ele>352.41</ele>
        <time>2016-11-13T08:15:14Z</time>
      </trkpt>
      <trkpt lat="47.42811" lon="6.77741">
        <ele>352.84</ele>
        <time>2016-11-13T08:15:22Z</time>
      </trkpt>
      <trkpt lat="47.42829" lon="6.77732">
        <ele>352.76</ele>
        <time>2016-11-13T08:15:29Z</time>
      </trkpt>
      <trkpt lat="47.42848" lon="6.77739">
        <ele>353.01</ele>
        <time>2016-11-13T08:15:38Z</time>
      </trkpt>
      <trkpt lat="47.42867" lon="6.77745">
        <ele>353.28</ele>
        <time>2016-11-13T08:15:47Z</time>
      </trkpt>
      <trkpt lat="47.42886" lon="6.77751">
        <ele>353.98</ele>
        <time>2016-11-13T08:15:54Z</time>
      </trkpt>
      <trkpt lat="47.42904" lon="6.77753">
        <ele>359.42</ele>
        <time>2016-11-13T08:17:14Z</time>
      </trkpt>
      <trkpt lat="47.42925" lon="6.77752">
        <ele>359.36</ele>
        <time>2016-11-13T08:17:20Z</time>
      </trkpt>
      <trkpt lat="47.42945" lon="6.77751">
        <ele>359.15</ele>
        <time>2016-11-13T08:17:26Z</time>
      </trkpt>
      <trkpt lat="47.42963" lon="6.77749">
        <ele>358.89</ele>
        <time>2016-11-13T08:17:31Z</time>
      </trkpt>
      <trkpt lat="47.42984" lon="6.77746">
        <ele>358.35</ele>
        <time>2016-11-13T08:17:36Z</time>
      </trkpt>
      <trkpt lat="47.43004" lon="6.77741">
        <ele>357.59</ele>
        <time>2016-11-13T08:17:41Z</time>
      </trkpt>
      <trkpt lat="47.43024" lon="6.77731">
        <ele>355.69</ele>
        <time>2016-11-13T08:17:47Z</time>
      </trkpt>
      <trkpt lat="47.43042" lon="6.77724">
        <ele>355.34</ele>
        <time>2016-11-13T08:17:52Z</time>
      </trkpt>
      <trkpt lat="47.43058" lon="6.77711">
        <ele>355.38</ele>
        <time>2016-11-13T08:17:57Z</time>
      </trkpt>
      <trkpt lat="47.43076" lon="6.77701">
        <ele>354.99</ele>
        <time>2016-11-13T08:18:02Z</time>
      </trkpt>
      <trkpt lat="47.43094" lon="6.77691">
        <ele>356.08</ele>
        <time>2016-11-13T08:18:06Z</time>
      </trkpt>
      <trkpt lat="47.43114" lon="6.77676">
        <ele>356.55</ele>
        <time>2016-11-13T08:18:11Z</time>
      </trkpt>
      <trkpt lat="47.43133" lon="6.77666">
        <ele>356.9</ele>
        <time>2016-11-13T08:18:16Z</time>
      </trkpt>
      <trkpt lat="47.43152" lon="6.77655">
        <ele>357.4</ele>
        <time>2016-11-13T08:18:21Z</time>
      </trkpt>
      <trkpt lat="47.4317" lon="6.77646">
        <ele>357.82</ele>
        <time>2016-11-13T08:18:26Z</time>
      </trkpt>
      <trkpt lat="47.43189" lon="6.77631">
        <ele>357.56</ele>
        <time>2016-11-13T08:18:31Z</time>
      </trkpt>
      <trkpt lat="47.43204" lon="6.77615">
        <ele>357.88</ele>
        <time>2016-11-13T08:18:36Z</time>
      </trkpt>
      <trkpt lat="47.43221" lon="6.77604">
        <ele>357.39</ele>
        <time>2016-11-13T08:18:41Z</time>
      </trkpt>
      <trkpt lat="47.43238" lon="6.77585">
        <ele>357.39</ele>
        <time>2016-11-13T08:18:46Z</time>
      </trkpt>
      <trkpt lat="47.43257" lon="6.77572">
        <ele>357.76</ele>
        <time>2016-11-13T08:18:52Z</time>
      </trkpt>
      <trkpt lat="47.43274" lon="6.77559">
        <ele>358.32</ele>
        <time>2016-11-13T08:18:57Z</time>
      </trkpt>
      <trkpt lat="47.4329" lon="6.77542">
        <ele>360.17</ele>
        <time>2016-11-13T08:19:02Z</time>
      </trkpt>
      <trkpt lat="47.43305" lon="6.77522">
        <ele>362.13</ele>
        <time>2016-11-13T08:19:07Z</time>
      </trkpt>
      <trkpt lat="47.43319" lon="6.77497">
        <ele>362.8</ele>
        <time>2016-11-13T08:19:12Z</time>
      </trkpt>
      <trkpt lat="47.43334" lon="6.77482">
        <ele>362.85</ele>
        <time>2016-11-13T08:19:17Z</time>
      </trkpt>
      <trkpt lat="47.43349" lon="6.77466">
        <ele>363.45</ele>
        <time>2016-11-13T08:19:23Z</time>
      </trkpt>
      <trkpt lat="47.43364" lon="6.7745">
        <ele>363.19</ele>
        <time>2016-11-13T08:19:29Z</time>
      </trkpt>
      <trkpt lat="47.43381" lon="6.77433">
        <ele>363.59</ele>
        <time>2016-11-13T08:19:36Z</time>
      </trkpt>
      <trkpt lat="47.43398" lon="6.77421">
        <ele>364.96</ele>
        <time>2016-11-13T08:19:41Z</time>
      </trkpt>
      <trkpt lat="47.43408" lon="6.77397">
        <ele>365.16</ele>
        <time>2016-11-13T08:19:45Z</time>
      </trkpt>
      <trkpt lat="47.43427" lon="6.77386">
        <ele>365.34</ele>
        <time>2016-11-13T08:19:53Z</time>
      </trkpt>
      <trkpt lat="47.43445" lon="6.77379">
        <ele>365.48</ele>
        <time>2016-11-13T08:20:00Z</time>
      </trkpt>
      <trkpt lat="47.43464" lon="6.77369">
        <ele>365.71</ele>
        <time>2016-11-13T08:20:08Z</time>
      </trkpt>
      <trkpt lat="47.43482" lon="6.77357">
        <ele>366.05</ele>
        <time>2016-11-13T08:20:16Z</time>
      </trkpt>
      <trkpt lat="47.43502" lon="6.7735">
        <ele>366.92</ele>
        <time>2016-11-13T08:20:23Z</time>
      </trkpt>
      <trkpt lat="47.43521" lon="6.77343">
        <ele>368</ele>
        <time>2016-11-13T08:20:30Z</time>
      </trkpt>
      <trkpt lat="47.43539" lon="6.77341">
        <ele>368.83</ele>
        <time>2016-11-13T08:20:35Z</time>
      </trkpt>
      <trkpt lat="47.43559" lon="6.77334">
        <ele>369.43</ele>
        <time>2016-11-13T08:20:40Z</time>
      </trkpt>
      <trkpt lat="47.43579" lon="6.77325">
        <ele>370.77</ele>
        <time>2016-11-13T08:20:45Z</time>
      </trkpt>
      <trkpt lat="47.43598" lon="6.77323">
        <ele>371.52</ele>
        <time>2016-11-13T08:20:51Z</time>
      </trkpt>
      <trkpt lat="47.43618" lon="6.77319">
        <ele>370.74</ele>
        <time>2016-11-13T08:20:56Z</time>
      </trkpt>
      <trkpt lat="47.43638" lon="6.77319">
        <ele>368.03</ele>
        <time>2016-11-13T08:21:00Z</time>
      </trkpt>
      <trkpt lat="47.43658" lon="6.77322">
        <ele>368.28</ele>
        <time>2016-11-13T08:21:04Z</time>
      </trkpt>
      <trkpt lat="47.4368" lon="6.77321">
        <ele>368.35</ele>
        <time>2016-11-13T08:21:08Z</time>
      </trkpt>
      <trkpt lat="47.43703" lon="6.77304">
        <ele>367.63</ele>
        <time>2016-11-13T08:21:12Z</time>
      </trkpt>
      <trkpt lat="47.4372" lon="6.77295">
        <ele>367.83</ele>
        <time>2016-11-13T08:21:15Z</time>
      </trkpt>
      <trkpt lat="47.4374" lon="6.77295">
        <ele>366.81</ele>
        <time>2016-11-13T08:21:20Z</time>
      </trkpt>
      <trkpt lat="47.43746" lon="6.77269">
        <ele>366.45</ele>
        <time>2016-11-13T08:21:26Z</time>
      </trkpt>
      <trkpt lat="47.43746" lon="6.77242">
        <ele>365.32</ele>
        <time>2016-11-13T08:21:34Z</time>
      </trkpt>
      <trkpt lat="47.43738" lon="6.77218">
        <ele>364.25</ele>
        <time>2016-11-13T08:21:43Z</time>
      </trkpt>
      <trkpt lat="47.43724" lon="6.77201">
        <ele>363.92</ele>
        <time>2016-11-13T08:21:52Z</time>
      </trkpt>
      <trkpt lat="47.43716" lon="6.77177">
        <ele>364.48</ele>
        <time>2016-11-13T08:22:02Z</time>
      </trkpt>
      <trkpt lat="47.43733" lon="6.77189">
        <ele>365.01</ele>
        <time>2016-11-13T08:22:13Z</time>
      </trkpt>
      <trkpt lat="47.43748" lon="6.77204">
        <ele>366.04</ele>
        <time>2016-11-13T08:22:19Z</time>
      </trkpt>
      <trkpt lat="47.43766" lon="6.77219">
        <ele>366.79</ele>
        <time>2016-11-13T08:22:25Z</time>
      </trkpt>
      <trkpt lat="47.43774" lon="6.77243">
        <ele>367.46</ele>
        <time>2016-11-13T08:22:32Z</time>
      </trkpt>
      <trkpt lat="47.43776" lon="6.77271">
        <ele>369.33</ele>
        <time>2016-11-13T08:22:37Z</time>
      </trkpt>
      <trkpt lat="47.43779" lon="6.77301">
        <ele>370.63</ele>
        <time>2016-11-13T08:22:41Z</time>
      </trkpt>
      <trkpt lat="47.4379" lon="6.77324">
        <ele>369.78</ele>
        <time>2016-11-13T08:22:44Z</time>
      </trkpt>
      <trkpt lat="47.43811" lon="6.77333">
        <ele>369.2</ele>
        <time>2016-11-13T08:22:48Z</time>
      </trkpt>
      <trkpt lat="47.4383" lon="6.77338">
        <ele>367.46</ele>
        <time>2016-11-13T08:22:52Z</time>
      </trkpt>
      <trkpt lat="47.4385" lon="6.77341">
        <ele>367.46</ele>
        <time>2016-11-13T08:22:56Z</time>
      </trkpt>
      <trkpt lat="47.43868" lon="6.77347">
        <ele>366.26</ele>
        <time>2016-11-13T08:23:00Z</time>
      </trkpt>
      <trkpt lat="47.43889" lon="6.77356">
        <ele>364.9</ele>
        <time>2016-11-13T08:23:05Z</time>
      </trkpt>
      <trkpt lat="47.43908" lon="6.77364">
        <ele>364.98</ele>
        <time>2016-11-13T08:23:09Z</time>
      </trkpt>
      <trkpt lat="47.43928" lon="6.77368">
        <ele>365.31</ele>
        <time>2016-11-13T08:23:13Z</time>
      </trkpt>
      <trkpt lat="47.43948" lon="6.77375">
        <ele>366.17</ele>
        <time>2016-11-13T08:23:17Z</time>
      </trkpt>
      <trkpt lat="47.43967" lon="6.77377">
        <ele>366.18</ele>
        <time>2016-11-13T08:23:21Z</time>
      </trkpt>
      <trkpt lat="47.43988" lon="6.77384">
        <ele>366.55</ele>
        <time>2016-11-13T08:23:25Z</time>
      </trkpt>
      <trkpt lat="47.44007" lon="6.77388">
        <ele>366.03</ele>
        <time>2016-11-13T08:23:29Z</time>
      </trkpt>
      <trkpt lat="47.44026" lon="6.77392">
        <ele>366.62</ele>
        <time>2016-11-13T08:23:33Z</time>
      </trkpt>
      <trkpt lat="47.44043" lon="6.77398">
        <ele>365.59</ele>
        <time>2016-11-13T08:23:37Z</time>
      </trkpt>
      <trkpt lat="47.44061" lon="6.77405">
        <ele>366.16</ele>
        <time>2016-11-13T08:23:41Z</time>
      </trkpt>
      <trkpt lat="47.44079" lon="6.77415">
        <ele>366.15</ele>
        <time>2016-11-13T08:23:45Z</time>
      </trkpt>
      <trkpt lat="47.441" lon="6.77425">
        <ele>364.68</ele>
        <time>2016-11-13T08:23:50Z</time>
      </trkpt>
      <trkpt lat="47.44118" lon="6.77432">
        <ele>364.43</ele>
        <time>2016-11-13T08:23:55Z</time>
      </trkpt>
      <trkpt lat="47.44136" lon="6.77441">
        <ele>364.43</ele>
        <time>2016-11-13T08:24:00Z</time>
      </trkpt>
      <trkpt lat="47.44155" lon="6.77449">
        <ele>363.48</ele>
        <time>2016-11-13T08:24:05Z</time>
      </trkpt>
      <trkpt lat="47.44174" lon="6.77457">
        <ele>363.04</ele>
        <time>2016-11-13T08:24:10Z</time>
      </trkpt>
      <trkpt lat="47.44192" lon="6.77462">
        <ele>364.58</ele>
        <time>2016-11-13T08:24:15Z</time>
      </trkpt>
      <trkpt lat="47.4421" lon="6.77472">
        <ele>365.04</ele>
        <time>2016-11-13T08:24:21Z</time>
      </trkpt>
      <trkpt lat="47.44224" lon="6.77493">
        <ele>367.22</ele>
        <time>2016-11-13T08:24:26Z</time>
      </trkpt>
      <trkpt lat="47.44242" lon="6.77504">
        <ele>369.16</ele>
        <time>2016-11-13T08:24:31Z</time>
      </trkpt>
      <trkpt lat="47.4426" lon="6.77513">
        <ele>369.35</ele>
        <time>2016-11-13T08:24:36Z</time>
      </trkpt>
      <trkpt lat="47.44277" lon="6.77522">
        <ele>368.91</ele>
        <time>2016-11-13T08:24:40Z</time>
      </trkpt>
      <trkpt lat="47.44295" lon="6.77531">
        <ele>367.84</ele>
        <time>2016-11-13T08:24:44Z</time>
      </trkpt>
      <trkpt lat="47.44314" lon="6.77537">
        <ele>366.5</ele>
        <time>2016-11-13T08:24:48Z</time>
      </trkpt>
      <trkpt lat="47.44336" lon="6.77544">
        <ele>367.91</ele>
        <time>2016-11-13T08:24:53Z</time>
      </trkpt>
      <trkpt lat="47.44355" lon="6.77552">
        <ele>368.24</ele>
        <time>2016-11-13T08:24:57Z</time>
      </trkpt>
      <trkpt lat="47.44374" lon="6.77561">
        <ele>369.74</ele>
        <time>2016-11-13T08:25:01Z</time>
      </trkpt>
      <trkpt lat="47.44393" lon="6.7757">
        <ele>369.74</ele>
        <time>2016-11-13T08:25:06Z</time>
      </trkpt>
      <trkpt lat="47.44411" lon="6.77577">
        <ele>369.68</ele>
        <time>2016-11-13T08:25:10Z</time>
      </trkpt>
      <trkpt lat="47.44432" lon="6.77586">
        <ele>368.08</ele>
        <time>2016-11-13T08:25:15Z</time>
      </trkpt>
      <trkpt lat="47.44451" lon="6.77593">
        <ele>365.68</ele>
        <time>2016-11-13T08:25:19Z</time>
      </trkpt>
      <trkpt lat="47.44472" lon="6.77595">
        <ele>363.65</ele>
        <time>2016-11-13T08:25:23Z</time>
      </trkpt>
      <trkpt lat="47.44493" lon="6.77599">
        <ele>362.66</ele>
        <time>2016-11-13T08:25:27Z</time>
      </trkpt>
      <trkpt lat="47.44515" lon="6.77609">
        <ele>362.83</ele>
        <time>2016-11-13T08:25:31Z</time>
      </trkpt>
      <trkpt lat="47.44533" lon="6.77619">
        <ele>363.92</ele>
        <time>2016-11-13T08:25:35Z</time>
      </trkpt>
      <trkpt lat="47.44551" lon="6.77629">
        <ele>364.3</ele>
        <time>2016-11-13T08:25:39Z</time>
      </trkpt>
      <trkpt lat="47.44572" lon="6.77631">
        <ele>364.57</ele>
        <time>2016-11-13T08:25:43Z</time>
      </trkpt>
      <trkpt lat="47.4459" lon="6.77631">
        <ele>363.75</ele>
        <time>2016-11-13T08:25:47Z</time>
      </trkpt>
      <trkpt lat="47.44611" lon="6.77627">
        <ele>362.78</ele>
        <time>2016-11-13T08:25:51Z</time>
      </trkpt>
      <trkpt lat="47.44631" lon="6.77625">
        <ele>361.53</ele>
        <time>2016-11-13T08:25:55Z</time>
      </trkpt>
      <trkpt lat="47.44652" lon="6.77622">
        <ele>360.62</ele>
        <time>2016-11-13T08:26:00Z</time>
      </trkpt>
      <trkpt lat="47.4467" lon="6.77618">
        <ele>360.37</ele>
        <time>2016-11-13T08:26:05Z</time>
      </trkpt>
      <trkpt lat="47.44689" lon="6.77612">
        <ele>360.8</ele>
        <time>2016-11-13T08:26:10Z</time>
      </trkpt>
      <trkpt lat="47.44707" lon="6.77603">
        <ele>361.89</ele>
        <time>2016-11-13T08:26:15Z</time>
      </trkpt>
      <trkpt lat="47.44726" lon="6.77594">
        <ele>362.68</ele>
        <time>2016-11-13T08:26:20Z</time>
      </trkpt>
      <trkpt lat="47.44744" lon="6.77584">
        <ele>362.6</ele>
        <time>2016-11-13T08:26:25Z</time>
      </trkpt>
      <trkpt lat="47.44761" lon="6.77574">
        <ele>362.05</ele>
        <time>2016-11-13T08:26:29Z</time>
      </trkpt>
      <trkpt lat="47.4478" lon="6.77563">
        <ele>360.52</ele>
        <time>2016-11-13T08:26:33Z</time>
      </trkpt>
      <trkpt lat="47.448" lon="6.77551">
        <ele>360.56</ele>
        <time>2016-11-13T08:26:37Z</time>
      </trkpt>
      <trkpt lat="47.44819" lon="6.77539">
        <ele>360.88</ele>
        <time>2016-11-13T08:26:41Z</time>
      </trkpt>
      <trkpt lat="47.44836" lon="6.77528">
        <ele>361.11</ele>
        <time>2016-11-13T08:26:45Z</time>
      </trkpt>
      <trkpt lat="47.4485" lon="6.77509">
        <ele>361.77</ele>
        <time>2016-11-13T08:26:50Z</time>
      </trkpt>
      <trkpt lat="47.44863" lon="6.77488">
        <ele>361.92</ele>
        <time>2016-11-13T08:26:57Z</time>
      </trkpt>
      <trkpt lat="47.44874" lon="6.77466">
        <ele>362.46</ele>
        <time>2016-11-13T08:27:05Z</time>
      </trkpt>
      <trkpt lat="47.44886" lon="6.77441">
        <ele>363.48</ele>
        <time>2016-11-13T08:27:12Z</time>
      </trkpt>
      <trkpt lat="47.44899" lon="6.77419">
        <ele>364.36</ele>
        <time>2016-11-13T08:27:18Z</time>
      </trkpt>
      <trkpt lat="47.44912" lon="6.77398">
        <ele>364.83</ele>
        <time>2016-11-13T08:27:24Z</time>
      </trkpt>
      <trkpt lat="47.44927" lon="6.7738">
        <ele>365.1</ele>
        <time>2016-11-13T08:27:30Z</time>
      </trkpt>
      <trkpt lat="47.44946" lon="6.77389">
        <ele>366.06</ele>
        <time>2016-11-13T08:27:36Z</time>
      </trkpt>
      <trkpt lat="47.44962" lon="6.77402">
        <ele>366.24</ele>
        <time>2016-11-13T08:27:41Z</time>
      </trkpt>
      <trkpt lat="47.44975" lon="6.7742">
        <ele>366.4</ele>
        <time>2016-11-13T08:27:47Z</time>
      </trkpt>
      <trkpt lat="47.44991" lon="6.77433">
        <ele>367.85</ele>
        <time>2016-11-13T08:29:32Z</time>
      </trkpt>
      <trkpt lat="47.45001" lon="6.7741">
        <ele>367.78</ele>
        <time>2016-11-13T08:29:41Z</time>
      </trkpt>
      <trkpt lat="47.4501" lon="6.77384">
        <ele>367.88</ele>
        <time>2016-11-13T08:29:49Z</time>
      </trkpt>
      <trkpt lat="47.45019" lon="6.77359">
        <ele>367.83</ele>
        <time>2016-11-13T08:29:56Z</time>
      </trkpt>
      <trkpt lat="47.45028" lon="6.77331">
        <ele>367.58</ele>
        <time>2016-11-13T08:30:03Z</time>
      </trkpt>
      <trkpt lat="47.45038" lon="6.77305">
        <ele>367.37</ele>
        <time>2016-11-13T08:30:10Z</time>
      </trkpt>
      <trkpt lat="47.45047" lon="6.77281">
        <ele>367.36</ele>
        <time>2016-11-13T08:30:16Z</time>
      </trkpt>
      <trkpt lat="47.45056" lon="6.77256">
        <ele>367.72</ele>
        <time>2016-11-13T08:30:23Z</time>
      </trkpt>
      <trkpt lat="47.45061" lon="6.77229">
        <ele>368.23</ele>
        <time>2016-11-13T08:30:29Z</time>
      </trkpt>
      <trkpt lat="47.45063" lon="6.77197">
        <ele>369.04</ele>
        <time>2016-11-13T08:30:35Z</time>
      </trkpt>
      <trkpt lat="47.45067" lon="6.77168">
        <ele>369.56</ele>
        <time>2016-11-13T08:30:41Z</time>
      </trkpt>
      <trkpt lat="47.45072" lon="6.77138">
        <ele>370.23</ele>
        <time>2016-11-13T08:30:47Z</time>
      </trkpt>
      <trkpt lat="47.45077" lon="6.77109">
        <ele>371.01</ele>
        <time>2016-11-13T08:30:53Z</time>
      </trkpt>
      <trkpt lat="47.45083" lon="6.77082">
        <ele>371.67</ele>
        <time>2016-11-13T08:30:59Z</time>
      </trkpt>
      <trkpt lat="47.45091" lon="6.77054">
        <ele>372.31</ele>
        <time>2016-11-13T08:31:05Z</time>
      </trkpt>
      <trkpt lat="47.451" lon="6.77027">
        <ele>372.78</ele>
        <time>2016-11-13T08:31:11Z</time>
      </trkpt>
      <trkpt lat="47.45114" lon="6.77009">
        <ele>373.6</ele>
        <time>2016-11-13T08:31:18Z</time>
      </trkpt>
      <trkpt lat="47.45132" lon="6.7702">
        <ele>374.11</ele>
        <time>2016-11-13T08:31:26Z</time>
      </trkpt>
      <trkpt lat="47.45117" lon="6.77004">
        <ele>376.94</ele>
        <time>2016-11-13T08:31:45Z</time>
      </trkpt>
      <trkpt lat="47.451" lon="6.77015">
        <ele>378.32</ele>
        <time>2016-11-13T08:31:54Z</time>
      </trkpt>
      <trkpt lat="47.45086" lon="6.77039">
        <ele>378.76</ele>
        <time>2016-11-13T08:31:59Z</time>
      </trkpt>
      <trkpt lat="47.45074" lon="6.77061">
        <ele>381.08</ele>
        <time>2016-11-13T08:32:04Z</time>
      </trkpt>
      <trkpt lat="47.45065" lon="6.7709">
        <ele>382.14</ele>
        <time>2016-11-13T08:32:09Z</time>
      </trkpt>
      <trkpt lat="47.45059" lon="6.77121">
        <ele>382.93</ele>
        <time>2016-11-13T08:32:14Z</time>
      </trkpt>
      <trkpt lat="47.45055" lon="6.77149">
        <ele>383.25</ele>
        <time>2016-11-13T08:32:18Z</time>
      </trkpt>
      <trkpt lat="47.45051" lon="6.77184">
        <ele>380.86</ele>
        <time>2016-11-13T08:32:22Z</time>
      </trkpt>
      <trkpt lat="47.45049" lon="6.77214">
        <ele>378.51</ele>
        <time>2016-11-13T08:32:26Z</time>
      </trkpt>
      <trkpt lat="47.4505" lon="6.77241">
        <ele>376.94</ele>
        <time>2016-11-13T08:32:29Z</time>
      </trkpt>
      <trkpt lat="47.45045" lon="6.77269">
        <ele>375</ele>
        <time>2016-11-13T08:32:33Z</time>
      </trkpt>
      <trkpt lat="47.4503" lon="6.77288">
        <ele>377.68</ele>
        <time>2016-11-13T08:32:56Z</time>
      </trkpt>
      <trkpt lat="47.45021" lon="6.77315">
        <ele>378.36</ele>
        <time>2016-11-13T08:33:01Z</time>
      </trkpt>
      <trkpt lat="47.45011" lon="6.77344">
        <ele>377.27</ele>
        <time>2016-11-13T08:33:06Z</time>
      </trkpt>
      <trkpt lat="47.45003" lon="6.77369">
        <ele>376.41</ele>
        <time>2016-11-13T08:33:10Z</time>
      </trkpt>
      <trkpt lat="47.44994" lon="6.77397">
        <ele>375.67</ele>
        <time>2016-11-13T08:33:14Z</time>
      </trkpt>
      <trkpt lat="47.44985" lon="6.77422">
        <ele>374.65</ele>
        <time>2016-11-13T08:33:18Z</time>
      </trkpt>
      <trkpt lat="47.44974" lon="6.77448">
        <ele>373.33</ele>
        <time>2016-11-13T08:33:22Z</time>
      </trkpt>
      <trkpt lat="47.44965" lon="6.77475">
        <ele>370.73</ele>
        <time>2016-11-13T08:33:26Z</time>
      </trkpt>
      <trkpt lat="47.44956" lon="6.77503">
        <ele>368.7</ele>
        <time>2016-11-13T08:33:30Z</time>
      </trkpt>
      <trkpt lat="47.44946" lon="6.77532">
        <ele>367.72</ele>
        <time>2016-11-13T08:33:34Z</time>
      </trkpt>
      <trkpt lat="47.44935" lon="6.77562">
        <ele>367.4</ele>
        <time>2016-11-13T08:33:38Z</time>
      </trkpt>
      <trkpt lat="47.44926" lon="6.77589">
        <ele>366.59</ele>
        <time>2016-11-13T08:33:42Z</time>
      </trkpt>
      <trkpt lat="47.44922" lon="6.77615">
        <ele>366.58</ele>
        <time>2016-11-13T08:33:45Z</time>
      </trkpt>
      <trkpt lat="47.44914" lon="6.7764">
        <ele>367.09</ele>
        <time>2016-11-13T08:33:48Z</time>
      </trkpt>
      <trkpt lat="47.44902" lon="6.77669">
        <ele>365.93</ele>
        <time>2016-11-13T08:33:52Z</time>
      </trkpt>
      <trkpt lat="47.4489" lon="6.77698">
        <ele>365.54</ele>
        <time>2016-11-13T08:33:56Z</time>
      </trkpt>
      <trkpt lat="47.44879" lon="6.77727">
        <ele>366.63</ele>
        <time>2016-11-13T08:34:00Z</time>
      </trkpt>
      <trkpt lat="47.44867" lon="6.77752">
        <ele>368.36</ele>
        <time>2016-11-13T08:34:04Z</time>
      </trkpt>
      <trkpt lat="47.44857" lon="6.77779">
        <ele>368.65</ele>
        <time>2016-11-13T08:34:08Z</time>
      </trkpt>
      <trkpt lat="47.44848" lon="6.77808">
        <ele>368.38</ele>
        <time>2016-11-13T08:34:12Z</time>
      </trkpt>
      <trkpt lat="47.4484" lon="6.77836">
        <ele>366.67</ele>
        <time>2016-11-13T08:34:16Z</time>
      </trkpt>
      <trkpt lat="47.4483" lon="6.77865">
        <ele>365.55</ele>
        <time>2016-11-13T08:34:20Z</time>
      </trkpt>
      <trkpt lat="47.44821" lon="6.77888">
        <ele>364.1</ele>
        <time>2016-11-13T08:34:24Z</time>
      </trkpt>
      <trkpt lat="47.44806" lon="6.77908">
        <ele>362.87</ele>
        <time>2016-11-13T08:34:28Z</time>
      </trkpt>
      <trkpt lat="47.44811" lon="6.77934">
        <ele>362.01</ele>
        <time>2016-11-13T08:34:41Z</time>
      </trkpt>
      <trkpt lat="47.44828" lon="6.77947">
        <ele>361.42</ele>
        <time>2016-11-13T08:34:49Z</time>
      </trkpt>
      <trkpt lat="47.44843" lon="6.77966">
        <ele>360.95</ele>
        <time>2016-11-13T08:34:54Z</time>
      </trkpt>
      <trkpt lat="47.44861" lon="6.77982">
        <ele>362.39</ele>
        <time>2016-11-13T08:34:59Z</time>
      </trkpt>
      <trkpt lat="47.4488" lon="6.77998">
        <ele>363.58</ele>
        <time>2016-11-13T08:35:04Z</time>
      </trkpt>
      <trkpt lat="47.44896" lon="6.78013">
        <ele>365.4</ele>
        <time>2016-11-13T08:35:08Z</time>
      </trkpt>
      <trkpt lat="47.44913" lon="6.78031">
        <ele>364.75</ele>
        <time>2016-11-13T08:35:13Z</time>
      </trkpt>
      <trkpt lat="47.44929" lon="6.78048">
        <ele>364.53</ele>
        <time>2016-11-13T08:35:18Z</time>
      </trkpt>
      <trkpt lat="47.44947" lon="6.78065">
        <ele>365.74</ele>
        <time>2016-11-13T08:35:23Z</time>
      </trkpt>
      <trkpt lat="47.44964" lon="6.78082">
        <ele>368.1</ele>
        <time>2016-11-13T08:35:27Z</time>
      </trkpt>
      <trkpt lat="47.44978" lon="6.78103">
        <ele>365.85</ele>
        <time>2016-11-13T08:35:32Z</time>
      </trkpt>
      <trkpt lat="47.44993" lon="6.78121">
        <ele>365.92</ele>
        <time>2016-11-13T08:35:36Z</time>
      </trkpt>
      <trkpt lat="47.45005" lon="6.78143">
        <ele>364.79</ele>
        <time>2016-11-13T08:35:40Z</time>
      </trkpt>
      <trkpt lat="47.45018" lon="6.78168">
        <ele>364.41</ele>
        <time>2016-11-13T08:35:44Z</time>
      </trkpt>
      <trkpt lat="47.45032" lon="6.78189">
        <ele>364.85</ele>
        <time>2016-11-13T08:35:48Z</time>
      </trkpt>
      <trkpt lat="47.45048" lon="6.78211">
        <ele>364.13</ele>
        <time>2016-11-13T08:35:52Z</time>
      </trkpt>
      <trkpt lat="47.45066" lon="6.78232">
        <ele>363.74</ele>
        <time>2016-11-13T08:35:56Z</time>
      </trkpt>
      <trkpt lat="47.45082" lon="6.78251">
        <ele>364.44</ele>
        <time>2016-11-13T08:36:00Z</time>
      </trkpt>
      <trkpt lat="47.45099" lon="6.78273">
        <ele>364.08</ele>
        <time>2016-11-13T08:36:04Z</time>
      </trkpt>
      <trkpt lat="47.45115" lon="6.78287">
        <ele>364.26</ele>
        <time>2016-11-13T08:36:07Z</time>
      </trkpt>
      <trkpt lat="47.45134" lon="6.78299">
        <ele>364.35</ele>
        <time>2016-11-13T08:36:10Z</time>
      </trkpt>
      <trkpt lat="47.45155" lon="6.78309">
        <ele>363.91</ele>
        <time>2016-11-13T08:36:13Z</time>
      </trkpt>
      <trkpt lat="47.45177" lon="6.78319">
        <ele>363.42</ele>
        <time>2016-11-13T08:36:16Z</time>
      </trkpt>
      <trkpt lat="47.45197" lon="6.78328">
        <ele>361.1</ele>
        <time>2016-11-13T08:36:19Z</time>
      </trkpt>
      <trkpt lat="47.45217" lon="6.78334">
        <ele>360.34</ele>
        <time>2016-11-13T08:36:22Z</time>
      </trkpt>
      <trkpt lat="47.45235" lon="6.7834">
        <ele>361.09</ele>
        <time>2016-11-13T08:36:25Z</time>
      </trkpt>
      <trkpt lat="47.45253" lon="6.78349">
        <ele>361.35</ele>
        <time>2016-11-13T08:36:30Z</time>
      </trkpt>
      <trkpt lat="47.4527" lon="6.78362">
        <ele>360.8</ele>
        <time>2016-11-13T08:36:34Z</time>
      </trkpt>
      <trkpt lat="47.45288" lon="6.78369">
        <ele>360.82</ele>
        <time>2016-11-13T08:36:39Z</time>
      </trkpt>
      <trkpt lat="47.45303" lon="6.78388">
        <ele>360.05</ele>
        <time>2016-11-13T08:36:50Z</time>
      </trkpt>
      <trkpt lat="47.45305" lon="6.78415">
        <ele>356.41</ele>
        <time>2016-11-13T08:36:57Z</time>
      </trkpt>
      <trkpt lat="47.45301" lon="6.78442">
        <ele>355.12</ele>
        <time>2016-11-13T08:37:03Z</time>
      </trkpt>
      <trkpt lat="47.45313" lon="6.78466">
        <ele>349.95</ele>
        <time>2016-11-13T08:37:15Z</time>
      </trkpt>
      <trkpt lat="47.45331" lon="6.7848">
        <ele>348.83</ele>
        <time>2016-11-13T08:37:21Z</time>
      </trkpt>
      <trkpt lat="47.45345" lon="6.78497">
        <ele>348.22</ele>
        <time>2016-11-13T08:37:28Z</time>
      </trkpt>
      <trkpt lat="47.45359" lon="6.78517">
        <ele>347.45</ele>
        <time>2016-11-13T08:37:40Z</time>
      </trkpt>
      <trkpt lat="47.45372" lon="6.78538">
        <ele>347.12</ele>
        <time>2016-11-13T08:37:46Z</time>
      </trkpt>
      <trkpt lat="47.45384" lon="6.78559">
        <ele>345.82</ele>
        <time>2016-11-13T08:37:51Z</time>
      </trkpt>
      <trkpt lat="47.45397" lon="6.78585">
        <ele>344.01</ele>
        <time>2016-11-13T08:37:56Z</time>
      </trkpt>
      <trkpt lat="47.45408" lon="6.78607">
        <ele>342.89</ele>
        <time>2016-11-13T08:38:00Z</time>
      </trkpt>
      <trkpt lat="47.45421" lon="6.78632">
        <ele>342.37</ele>
        <time>2016-11-13T08:38:04Z</time>
      </trkpt>
      <trkpt lat="47.45435" lon="6.78657">
        <ele>341.74</ele>
        <time>2016-11-13T08:38:08Z</time>
      </trkpt>
      <trkpt lat="47.45448" lon="6.78681">
        <ele>342.12</ele>
        <time>2016-11-13T08:38:12Z</time>
      </trkpt>
      <trkpt lat="47.45461" lon="6.78705">
        <ele>342.18</ele>
        <time>2016-11-13T08:38:16Z</time>
      </trkpt>
      <trkpt lat="47.45473" lon="6.78728">
        <ele>342.68</ele>
        <time>2016-11-13T08:38:20Z</time>
      </trkpt>
      <trkpt lat="47.45484" lon="6.78752">
        <ele>342.69</ele>
        <time>2016-11-13T08:38:24Z</time>
      </trkpt>
      <trkpt lat="47.45473" lon="6.78773">
        <ele>341.49</ele>
        <time>2016-11-13T08:38:28Z</time>
      </trkpt>
      <trkpt lat="47.45458" lon="6.78789">
        <ele>341.89</ele>
        <time>2016-11-13T08:38:31Z</time>
      </trkpt>
      <trkpt lat="47.45442" lon="6.78812">
        <ele>341.88</ele>
        <time>2016-11-13T08:38:35Z</time>
      </trkpt>
      <trkpt lat="47.45424" lon="6.78834">
        <ele>340.95</ele>
        <time>2016-11-13T08:38:39Z</time>
      </trkpt>
      <trkpt lat="47.4541" lon="6.78852">
        <ele>338.42</ele>
        <time>2016-11-13T08:38:42Z</time>
      </trkpt>
      <trkpt lat="47.45392" lon="6.78874">
        <ele>337.7</ele>
        <time>2016-11-13T08:38:46Z</time>
      </trkpt>
      <trkpt lat="47.45377" lon="6.78891">
        <ele>337.45</ele>
        <time>2016-11-13T08:38:49Z</time>
      </trkpt>
      <trkpt lat="47.4536" lon="6.78912">
        <ele>337.61</ele>
        <time>2016-11-13T08:38:53Z</time>
      </trkpt>
      <trkpt lat="47.45344" lon="6.78934">
        <ele>337.67</ele>
        <time>2016-11-13T08:38:57Z</time>
      </trkpt>
      <trkpt lat="47.45328" lon="6.78956">
        <ele>337.73</ele>
        <time>2016-11-13T08:39:01Z</time>
      </trkpt>
      <trkpt lat="47.45312" lon="6.78976">
        <ele>338.36</ele>
        <time>2016-11-13T08:39:05Z</time>
      </trkpt>
      <trkpt lat="47.453" lon="6.78998">
        <ele>338.62</ele>
        <time>2016-11-13T08:39:09Z</time>
      </trkpt>
      <trkpt lat="47.45285" lon="6.79019">
        <ele>338.12</ele>
        <time>2016-11-13T08:39:13Z</time>
      </trkpt>
      <trkpt lat="47.45273" lon="6.79043">
        <ele>337.71</ele>
        <time>2016-11-13T08:39:18Z</time>
      </trkpt>
      <trkpt lat="47.45267" lon="6.79069">
        <ele>339.67</ele>
        <time>2016-11-13T08:39:23Z</time>
      </trkpt>
      <trkpt lat="47.45258" lon="6.79097">
        <ele>339.92</ele>
        <time>2016-11-13T08:39:28Z</time>
      </trkpt>
      <trkpt lat="47.45246" lon="6.79123">
        <ele>340.24</ele>
        <time>2016-11-13T08:39:33Z</time>
      </trkpt>
      <trkpt lat="47.45229" lon="6.79133">
        <ele>341.06</ele>
        <time>2016-11-13T08:39:38Z</time>
      </trkpt>
      <trkpt lat="47.45218" lon="6.79159">
        <ele>342.1</ele>
        <time>2016-11-13T08:39:44Z</time>
      </trkpt>
      <trkpt lat="47.4521" lon="6.79188">
        <ele>344.22</ele>
        <time>2016-11-13T08:39:49Z</time>
      </trkpt>
      <trkpt lat="47.45203" lon="6.79218">
        <ele>344.77</ele>
        <time>2016-11-13T08:39:54Z</time>
      </trkpt>
      <trkpt lat="47.45197" lon="6.79247">
        <ele>343.59</ele>
        <time>2016-11-13T08:39:58Z</time>
      </trkpt>
      <trkpt lat="47.45191" lon="6.79273">
        <ele>342.71</ele>
        <time>2016-11-13T08:40:02Z</time>
      </trkpt>
      <trkpt lat="47.45187" lon="6.793">
        <ele>341.49</ele>
        <time>2016-11-13T08:40:06Z</time>
      </trkpt>
      <trkpt lat="47.45181" lon="6.79332">
        <ele>340.84</ele>
        <time>2016-11-13T08:40:11Z</time>
      </trkpt>
      <trkpt lat="47.45175" lon="6.79357">
        <ele>341.25</ele>
        <time>2016-11-13T08:40:15Z</time>
      </trkpt>
      <trkpt lat="47.45165" lon="6.79385">
        <ele>341.81</ele>
        <time>2016-11-13T08:40:20Z</time>
      </trkpt>
      <trkpt lat="47.45159" lon="6.79411">
        <ele>340.61</ele>
        <time>2016-11-13T08:40:24Z</time>
      </trkpt>
      <trkpt lat="47.45154" lon="6.79443">
        <ele>339.81</ele>
        <time>2016-11-13T08:40:29Z</time>
      </trkpt>
      <trkpt lat="47.45148" lon="6.7947">
        <ele>340.91</ele>
        <time>2016-11-13T08:40:33Z</time>
      </trkpt>
      <trkpt lat="47.45141" lon="6.79499">
        <ele>341.88</ele>
        <time>2016-11-13T08:40:38Z</time>
      </trkpt>
      <trkpt lat="47.45129" lon="6.79523">
        <ele>341.97</ele>
        <time>2016-11-13T08:40:42Z</time>
      </trkpt>
      <trkpt lat="47.45112" lon="6.79542">
        <ele>341.56</ele>
        <time>2016-11-13T08:40:49Z</time>
      </trkpt>
      <trkpt lat="47.45097" lon="6.79564">
        <ele>341.31</ele>
        <time>2016-11-13T08:40:54Z</time>
      </trkpt>
      <trkpt lat="47.45083" lon="6.79587">
        <ele>339.56</ele>
        <time>2016-11-13T08:40:59Z</time>
      </trkpt>
      <trkpt lat="47.45068" lon="6.79609">
        <ele>338.25</ele>
        <time>2016-11-13T08:41:04Z</time>
      </trkpt>
      <trkpt lat="47.45053" lon="6.79628">
        <ele>338.84</ele>
        <time>2016-11-13T08:41:10Z</time>
      </trkpt>
      <trkpt lat="47.45044" lon="6.79652">
        <ele>339.27</ele>
        <time>2016-11-13T08:41:17Z</time>
      </trkpt>
      <trkpt lat="47.45038" lon="6.7968">
        <ele>339.59</ele>
        <time>2016-11-13T08:41:23Z</time>
      </trkpt>
      <trkpt lat="47.45036" lon="6.79706">
        <ele>340.42</ele>
        <time>2016-11-13T08:41:31Z</time>
      </trkpt>
      <trkpt lat="47.45018" lon="6.79708">
        <ele>342.19</ele>
        <time>2016-11-13T08:41:46Z</time>
      </trkpt>
      <trkpt lat="47.45" lon="6.79697">
        <ele>344.08</ele>
        <time>2016-11-13T08:41:59Z</time>
      </trkpt>
      <trkpt lat="47.44982" lon="6.79691">
        <ele>346.32</ele>
        <time>2016-11-13T08:42:11Z</time>
      </trkpt>
      <trkpt lat="47.44963" lon="6.79696">
        <ele>349.23</ele>
        <time>2016-11-13T08:42:24Z</time>
      </trkpt>
      <trkpt lat="47.44951" lon="6.79716">
        <ele>351.05</ele>
        <time>2016-11-13T08:42:35Z</time>
      </trkpt>
      <trkpt lat="47.44932" lon="6.79727">
        <ele>352.17</ele>
        <time>2016-11-13T08:42:44Z</time>
      </trkpt>
      <trkpt lat="47.44914" lon="6.79739">
        <ele>353.3</ele>
        <time>2016-11-13T08:42:53Z</time>
      </trkpt>
      <trkpt lat="47.44895" lon="6.79739">
        <ele>354.47</ele>
        <time>2016-11-13T08:43:01Z</time>
      </trkpt>
      <trkpt lat="47.44878" lon="6.79728">
        <ele>355.48</ele>
        <time>2016-11-13T08:43:08Z</time>
      </trkpt>
      <trkpt lat="47.44861" lon="6.7972">
        <ele>356.31</ele>
        <time>2016-11-13T08:43:15Z</time>
      </trkpt>
      <trkpt lat="47.44842" lon="6.79718">
        <ele>357.2</ele>
        <time>2016-11-13T08:43:21Z</time>
      </trkpt>
      <trkpt lat="47.44824" lon="6.79726">
        <ele>358.01</ele>
        <time>2016-11-13T08:43:27Z</time>
      </trkpt>
      <trkpt lat="47.44819" lon="6.79754">
        <ele>358.59</ele>
        <time>2016-11-13T08:43:33Z</time>
      </trkpt>
      <trkpt lat="47.44814" lon="6.79785">
        <ele>359.02</ele>
        <time>2016-11-13T08:43:39Z</time>
      </trkpt>
      <trkpt lat="47.44809" lon="6.79815">
        <ele>361.02</ele>
        <time>2016-11-13T08:43:45Z</time>
      </trkpt>
      <trkpt lat="47.44805" lon="6.79843">
        <ele>361.94</ele>
        <time>2016-11-13T08:43:50Z</time>
      </trkpt>
      <trkpt lat="47.448" lon="6.79872">
        <ele>362.3</ele>
        <time>2016-11-13T08:43:56Z</time>
      </trkpt>
      <trkpt lat="47.44796" lon="6.79904">
        <ele>362.46</ele>
        <time>2016-11-13T08:44:02Z</time>
      </trkpt>
      <trkpt lat="47.44793" lon="6.79933">
        <ele>362.2</ele>
        <time>2016-11-13T08:44:08Z</time>
      </trkpt>
      <trkpt lat="47.44789" lon="6.79962">
        <ele>362.22</ele>
        <time>2016-11-13T08:44:15Z</time>
      </trkpt>
      <trkpt lat="47.44775" lon="6.79979">
        <ele>363.19</ele>
        <time>2016-11-13T08:44:27Z</time>
      </trkpt>
      <trkpt lat="47.44755" lon="6.79977">
        <ele>363.62</ele>
        <time>2016-11-13T08:44:35Z</time>
      </trkpt>
      <trkpt lat="47.44736" lon="6.79973">
        <ele>363.92</ele>
        <time>2016-11-13T08:44:42Z</time>
      </trkpt>
      <trkpt lat="47.44718" lon="6.79968">
        <ele>364.25</ele>
        <time>2016-11-13T08:44:48Z</time>
      </trkpt>
      <trkpt lat="47.44698" lon="6.79964">
        <ele>364.6</ele>
        <time>2016-11-13T08:44:54Z</time>
      </trkpt>
      <trkpt lat="47.44677" lon="6.7996">
        <ele>364.88</ele>
        <time>2016-11-13T08:45:00Z</time>
      </trkpt>
      <trkpt lat="47.44656" lon="6.79956">
        <ele>365.62</ele>
        <time>2016-11-13T08:45:06Z</time>
      </trkpt>
      <trkpt lat="47.44637" lon="6.79953">
        <ele>366.03</ele>
        <time>2016-11-13T08:45:11Z</time>
      </trkpt>
      <trkpt lat="47.44619" lon="6.79946">
        <ele>367.94</ele>
        <time>2016-11-13T08:45:16Z</time>
      </trkpt>
      <trkpt lat="47.446" lon="6.7994">
        <ele>368.51</ele>
        <time>2016-11-13T08:45:22Z</time>
      </trkpt>
      <trkpt lat="47.44582" lon="6.79934">
        <ele>369.56</ele>
        <time>2016-11-13T08:45:27Z</time>
      </trkpt>
      <trkpt lat="47.44564" lon="6.79928">
        <ele>370.61</ele>
        <time>2016-11-13T08:45:32Z</time>
      </trkpt>
      <trkpt lat="47.44547" lon="6.79922">
        <ele>370.89</ele>
        <time>2016-11-13T08:45:37Z</time>
      </trkpt>
      <trkpt lat="47.44527" lon="6.79916">
        <ele>371.2</ele>
        <time>2016-11-13T08:45:43Z</time>
      </trkpt>
      <trkpt lat="47.44507" lon="6.79912">
        <ele>371.62</ele>
        <time>2016-11-13T08:45:49Z</time>
      </trkpt>
      <trkpt lat="47.44489" lon="6.79909">
        <ele>372.15</ele>
        <time>2016-11-13T08:45:55Z</time>
      </trkpt>
      <trkpt lat="47.4447" lon="6.79904">
        <ele>372.83</ele>
        <time>2016-11-13T08:46:01Z</time>
      </trkpt>
      <trkpt lat="47.44451" lon="6.79897">
        <ele>373.66</ele>
        <time>2016-11-13T08:46:09Z</time>
      </trkpt>
      <trkpt lat="47.44431" lon="6.79887">
        <ele>374.63</ele>
        <time>2016-11-13T08:46:17Z</time>
      </trkpt>
      <trkpt lat="47.44413" lon="6.79878">
        <ele>375.65</ele>
        <time>2016-11-13T08:46:25Z</time>
      </trkpt>
      <trkpt lat="47.44395" lon="6.7987">
        <ele>376.8</ele>
        <time>2016-11-13T08:46:33Z</time>
      </trkpt>
      <trkpt lat="47.44375" lon="6.7987">
        <ele>378.61</ele>
        <time>2016-11-13T08:46:45Z</time>
      </trkpt>
      <trkpt lat="47.44363" lon="6.79889">
        <ele>380.52</ele>
        <time>2016-11-13T08:46:52Z</time>
      </trkpt>
      <trkpt lat="47.44354" lon="6.79915">
        <ele>383.19</ele>
        <time>2016-11-13T08:47:02Z</time>
      </trkpt>
      <trkpt lat="47.44341" lon="6.79939">
        <ele>386.46</ele>
        <time>2016-11-13T08:47:11Z</time>
      </trkpt>
      <trkpt lat="47.44334" lon="6.79964">
        <ele>388.02</ele>
        <time>2016-11-13T08:47:17Z</time>
      </trkpt>
      <trkpt lat="47.44328" lon="6.79991">
        <ele>389.45</ele>
        <time>2016-11-13T08:47:24Z</time>
      </trkpt>
      <trkpt lat="47.44322" lon="6.80017">
        <ele>390.68</ele>
        <time>2016-11-13T08:47:32Z</time>
      </trkpt>
      <trkpt lat="47.44312" lon="6.80043">
        <ele>391.56</ele>
        <time>2016-11-13T08:47:37Z</time>
      </trkpt>
      <trkpt lat="47.44304" lon="6.80069">
        <ele>394.82</ele>
        <time>2016-11-13T08:47:42Z</time>
      </trkpt>
      <trkpt lat="47.44299" lon="6.80098">
        <ele>395.35</ele>
        <time>2016-11-13T08:47:46Z</time>
      </trkpt>
      <trkpt lat="47.44293" lon="6.80124">
        <ele>396.63</ele>
        <time>2016-11-13T08:47:51Z</time>
      </trkpt>
      <trkpt lat="47.44282" lon="6.80148">
        <ele>397.64</ele>
        <time>2016-11-13T08:47:57Z</time>
      </trkpt>
      <trkpt lat="47.44271" lon="6.80172">
        <ele>398.84</ele>
        <time>2016-11-13T08:48:03Z</time>
      </trkpt>
      <trkpt lat="47.44264" lon="6.80197">
        <ele>399.46</ele>
        <time>2016-11-13T08:48:07Z</time>
      </trkpt>
      <trkpt lat="47.44256" lon="6.80223">
        <ele>399.64</ele>
        <time>2016-11-13T08:48:14Z</time>
      </trkpt>
      <trkpt lat="47.44245" lon="6.80245">
        <ele>399.53</ele>
        <time>2016-11-13T08:48:23Z</time>
      </trkpt>
      <trkpt lat="47.44227" lon="6.80256">
        <ele>399.54</ele>
        <time>2016-11-13T08:48:30Z</time>
      </trkpt>
      <trkpt lat="47.44209" lon="6.80264">
        <ele>399.62</ele>
        <time>2016-11-13T08:48:39Z</time>
      </trkpt>
      <trkpt lat="47.4419" lon="6.80266">
        <ele>395.71</ele>
        <time>2016-11-13T08:49:02Z</time>
      </trkpt>
      <trkpt lat="47.44173" lon="6.80257">
        <ele>395.76</ele>
        <time>2016-11-13T08:49:13Z</time>
      </trkpt>
      <trkpt lat="47.44156" lon="6.80247">
        <ele>395.95</ele>
        <time>2016-11-13T08:49:23Z</time>
      </trkpt>
      <trkpt lat="47.4414" lon="6.80233">
        <ele>397.31</ele>
        <time>2016-11-13T08:49:36Z</time>
      </trkpt>
      <trkpt lat="47.44125" lon="6.80219">
        <ele>399.22</ele>
        <time>2016-11-13T08:49:49Z</time>
      </trkpt>
      <trkpt lat="47.44109" lon="6.80206">
        <ele>400.84</ele>
        <time>2016-11-13T08:50:01Z</time>
      </trkpt>
      <trkpt lat="47.44091" lon="6.80198">
        <ele>403.12</ele>
        <time>2016-11-13T08:50:15Z</time>
      </trkpt>
      <trkpt lat="47.44073" lon="6.80206">
        <ele>406.36</ele>
        <time>2016-11-13T08:50:26Z</time>
      </trkpt>
      <trkpt lat="47.44054" lon="6.80209">
        <ele>409.58</ele>
        <time>2016-11-13T08:50:37Z</time>
      </trkpt>
      <trkpt lat="47.44036" lon="6.80217">
        <ele>412.43</ele>
        <time>2016-11-13T08:50:48Z</time>
      </trkpt>
      <trkpt lat="47.44018" lon="6.80227">
        <ele>415.49</ele>
        <time>2016-11-13T08:51:01Z</time>
      </trkpt>
      <trkpt lat="47.44001" lon="6.80236">
        <ele>417.49</ele>
        <time>2016-11-13T08:51:13Z</time>
      </trkpt>
      <trkpt lat="47.43982" lon="6.80244">
        <ele>419.33</ele>
        <time>2016-11-13T08:51:27Z</time>
      </trkpt>
      <trkpt lat="47.43966" lon="6.80258">
        <ele>420.49</ele>
        <time>2016-11-13T08:51:38Z</time>
      </trkpt>
      <trkpt lat="47.4395" lon="6.80273">
        <ele>422.84</ele>
        <time>2016-11-13T08:51:50Z</time>
      </trkpt>
      <trkpt lat="47.43934" lon="6.80288">
        <ele>423.23</ele>
        <time>2016-11-13T08:52:03Z</time>
      </trkpt>
      <trkpt lat="47.43921" lon="6.80309">
        <ele>424.5</ele>
        <time>2016-11-13T08:52:15Z</time>
      </trkpt>
      <trkpt lat="47.43907" lon="6.80329">
        <ele>427.06</ele>
        <time>2016-11-13T08:52:27Z</time>
      </trkpt>
      <trkpt lat="47.43893" lon="6.80347">
        <ele>429.76</ele>
        <time>2016-11-13T08:52:40Z</time>
      </trkpt>
      <trkpt lat="47.43873" lon="6.80351">
        <ele>433.88</ele>
        <time>2016-11-13T08:52:54Z</time>
      </trkpt>
      <trkpt lat="47.43855" lon="6.80346">
        <ele>436.19</ele>
        <time>2016-11-13T08:53:09Z</time>
      </trkpt>
      <trkpt lat="47.43839" lon="6.80333">
        <ele>438.56</ele>
        <time>2016-11-13T08:53:20Z</time>
      </trkpt>
      <trkpt lat="47.43822" lon="6.8032">
        <ele>440.51</ele>
        <time>2016-11-13T08:53:30Z</time>
      </trkpt>
      <trkpt lat="47.4381" lon="6.803">
        <ele>442.78</ele>
        <time>2016-11-13T08:53:40Z</time>
      </trkpt>
      <trkpt lat="47.43799" lon="6.80277">
        <ele>444.79</ele>
        <time>2016-11-13T08:53:51Z</time>
      </trkpt>
      <trkpt lat="47.43788" lon="6.80254">
        <ele>445.79</ele>
        <time>2016-11-13T08:54:03Z</time>
      </trkpt>
      <trkpt lat="47.43776" lon="6.80232">
        <ele>447.91</ele>
        <time>2016-11-13T08:54:15Z</time>
      </trkpt>
      <trkpt lat="47.43767" lon="6.80208">
        <ele>450.51</ele>
        <time>2016-11-13T08:54:27Z</time>
      </trkpt>
      <trkpt lat="47.43759" lon="6.80183">
        <ele>452.84</ele>
        <time>2016-11-13T08:54:39Z</time>
      </trkpt>
      <trkpt lat="47.43744" lon="6.80165">
        <ele>455.6</ele>
        <time>2016-11-13T08:54:50Z</time>
      </trkpt>
      <trkpt lat="47.43735" lon="6.80142">
        <ele>457.98</ele>
        <time>2016-11-13T08:55:00Z</time>
      </trkpt>
      <trkpt lat="47.43725" lon="6.80117">
        <ele>459.9</ele>
        <time>2016-11-13T08:55:12Z</time>
      </trkpt>
      <trkpt lat="47.43718" lon="6.80091">
        <ele>461.6</ele>
        <time>2016-11-13T08:55:24Z</time>
      </trkpt>
      <trkpt lat="47.43709" lon="6.80066">
        <ele>463.62</ele>
        <time>2016-11-13T08:55:35Z</time>
      </trkpt>
      <trkpt lat="47.437" lon="6.80042">
        <ele>465.35</ele>
        <time>2016-11-13T08:55:45Z</time>
      </trkpt>
      <trkpt lat="47.4369" lon="6.80019">
        <ele>467.14</ele>
        <time>2016-11-13T08:55:55Z</time>
      </trkpt>
      <trkpt lat="47.43679" lon="6.79997">
        <ele>468.2</ele>
        <time>2016-11-13T08:56:04Z</time>
      </trkpt>
      <trkpt lat="47.43669" lon="6.79973">
        <ele>469.64</ele>
        <time>2016-11-13T08:56:15Z</time>
      </trkpt>
      <trkpt lat="47.43661" lon="6.79948">
        <ele>471.18</ele>
        <time>2016-11-13T08:56:23Z</time>
      </trkpt>
      <trkpt lat="47.43647" lon="6.79928">
        <ele>472.46</ele>
        <time>2016-11-13T08:56:31Z</time>
      </trkpt>
      <trkpt lat="47.43635" lon="6.79908">
        <ele>473.44</ele>
        <time>2016-11-13T08:56:37Z</time>
      </trkpt>
      <trkpt lat="47.4362" lon="6.79888">
        <ele>474.92</ele>
        <time>2016-11-13T08:56:44Z</time>
      </trkpt>
      <trkpt lat="47.43605" lon="6.79872">
        <ele>476.27</ele>
        <time>2016-11-13T08:56:50Z</time>
      </trkpt>
      <trkpt lat="47.43587" lon="6.79857">
        <ele>477.25</ele>
        <time>2016-11-13T08:56:55Z</time>
      </trkpt>
      <trkpt lat="47.43571" lon="6.79845">
        <ele>478.41</ele>
        <time>2016-11-13T08:57:00Z</time>
      </trkpt>
      <trkpt lat="47.43548" lon="6.79836">
        <ele>482.99</ele>
        <time>2016-11-13T08:57:05Z</time>
      </trkpt>
      <trkpt lat="47.43531" lon="6.79824">
        <ele>482.53</ele>
        <time>2016-11-13T08:57:09Z</time>
      </trkpt>
      <trkpt lat="47.43511" lon="6.7981">
        <ele>482.85</ele>
        <time>2016-11-13T08:57:15Z</time>
      </trkpt>
      <trkpt lat="47.43494" lon="6.79797">
        <ele>484.62</ele>
        <time>2016-11-13T08:57:20Z</time>
      </trkpt>
      <trkpt lat="47.43474" lon="6.79786">
        <ele>484.79</ele>
        <time>2016-11-13T08:57:25Z</time>
      </trkpt>
      <trkpt lat="47.43456" lon="6.79776">
        <ele>485.11</ele>
        <time>2016-11-13T08:57:28Z</time>
      </trkpt>
      <trkpt lat="47.43439" lon="6.79768">
        <ele>487.79</ele>
        <time>2016-11-13T08:57:32Z</time>
      </trkpt>
      <trkpt lat="47.4342" lon="6.79764">
        <ele>488.33</ele>
        <time>2016-11-13T08:57:36Z</time>
      </trkpt>
      <trkpt lat="47.43402" lon="6.79763">
        <ele>488.02</ele>
        <time>2016-11-13T08:57:41Z</time>
      </trkpt>
      <trkpt lat="47.43381" lon="6.79766">
        <ele>487.95</ele>
        <time>2016-11-13T08:57:46Z</time>
      </trkpt>
      <trkpt lat="47.43362" lon="6.79766">
        <ele>488.08</ele>
        <time>2016-11-13T08:57:51Z</time>
      </trkpt>
      <trkpt lat="47.43343" lon="6.79767">
        <ele>488.75</ele>
        <time>2016-11-13T08:57:59Z</time>
      </trkpt>
      <trkpt lat="47.43324" lon="6.79774">
        <ele>489.07</ele>
        <time>2016-11-13T08:58:07Z</time>
      </trkpt>
      <trkpt lat="47.43307" lon="6.79781">
        <ele>489.17</ele>
        <time>2016-11-13T08:58:15Z</time>
      </trkpt>
      <trkpt lat="47.43289" lon="6.79788">
        <ele>489.27</ele>
        <time>2016-11-13T08:58:23Z</time>
      </trkpt>
      <trkpt lat="47.4327" lon="6.79792">
        <ele>489.12</ele>
        <time>2016-11-13T08:58:31Z</time>
      </trkpt>
      <trkpt lat="47.43252" lon="6.79792">
        <ele>488.9</ele>
        <time>2016-11-13T08:58:39Z</time>
      </trkpt>
      <trkpt lat="47.43234" lon="6.79787">
        <ele>489.4</ele>
        <time>2016-11-13T08:58:47Z</time>
      </trkpt>
      <trkpt lat="47.43213" lon="6.79786">
        <ele>489.96</ele>
        <time>2016-11-13T08:58:54Z</time>
      </trkpt>
      <trkpt lat="47.43194" lon="6.79782">
        <ele>490.16</ele>
        <time>2016-11-13T08:59:00Z</time>
      </trkpt>
      <trkpt lat="47.43173" lon="6.79778">
        <ele>490.44</ele>
        <time>2016-11-13T08:59:07Z</time>
      </trkpt>
      <trkpt lat="47.43155" lon="6.79776">
        <ele>490.66</ele>
        <time>2016-11-13T08:59:13Z</time>
      </trkpt>
      <trkpt lat="47.43136" lon="6.79776">
        <ele>492.22</ele>
        <time>2016-11-13T08:59:18Z</time>
      </trkpt>
      <trkpt lat="47.43115" lon="6.79777">
        <ele>493.43</ele>
        <time>2016-11-13T08:59:23Z</time>
      </trkpt>
      <trkpt lat="47.43096" lon="6.79779">
        <ele>495.03</ele>
        <time>2016-11-13T08:59:28Z</time>
      </trkpt>
      <trkpt lat="47.43078" lon="6.7978">
        <ele>497.92</ele>
        <time>2016-11-13T08:59:33Z</time>
      </trkpt>
      <trkpt lat="47.4306" lon="6.79781">
        <ele>497.42</ele>
        <time>2016-11-13T08:59:38Z</time>
      </trkpt>
      <trkpt lat="47.4304" lon="6.79786">
        <ele>496.8</ele>
        <time>2016-11-13T08:59:44Z</time>
      </trkpt>
      <trkpt lat="47.43022" lon="6.79794">
        <ele>496.72</ele>
        <time>2016-11-13T08:59:50Z</time>
      </trkpt>
      <trkpt lat="47.43005" lon="6.79782">
        <ele>497.34</ele>
        <time>2016-11-13T08:59:58Z</time>
      </trkpt>
      <trkpt lat="47.42991" lon="6.79761">
        <ele>497.68</ele>
        <time>2016-11-13T09:00:05Z</time>
      </trkpt>
      <trkpt lat="47.42975" lon="6.79739">
        <ele>498.02</ele>
        <time>2016-11-13T09:00:11Z</time>
      </trkpt>
      <trkpt lat="47.42968" lon="6.79713">
        <ele>497.95</ele>
        <time>2016-11-13T09:00:17Z</time>
      </trkpt>
      <trkpt lat="47.4298" lon="6.7969">
        <ele>497.77</ele>
        <time>2016-11-13T09:00:24Z</time>
      </trkpt>
      <trkpt lat="47.42989" lon="6.79664">
        <ele>497.75</ele>
        <time>2016-11-13T09:00:31Z</time>
      </trkpt>
      <trkpt lat="47.42995" lon="6.79637">
        <ele>496.7</ele>
        <time>2016-11-13T09:00:36Z</time>
      </trkpt>
      <trkpt lat="47.43001" lon="6.79611">
        <ele>497.09</ele>
        <time>2016-11-13T09:00:41Z</time>
      </trkpt>
      <trkpt lat="47.43012" lon="6.79588">
        <ele>497.91</ele>
        <time>2016-11-13T09:00:50Z</time>
      </trkpt>
      <trkpt lat="47.42992" lon="6.7959">
        <ele>500.84</ele>
        <time>2016-11-13T09:06:33Z</time>
      </trkpt>
      <trkpt lat="47.42973" lon="6.79592">
        <ele>497.85</ele>
        <time>2016-11-13T09:06:38Z</time>
      </trkpt>
      <trkpt lat="47.42952" lon="6.79592">
        <ele>497.47</ele>
        <time>2016-11-13T09:06:43Z</time>
      </trkpt>
      <trkpt lat="47.42933" lon="6.79587">
        <ele>495.71</ele>
        <time>2016-11-13T09:06:49Z</time>
      </trkpt>
      <trkpt lat="47.4291" lon="6.79586">
        <ele>495.27</ele>
        <time>2016-11-13T09:06:54Z</time>
      </trkpt>
      <trkpt lat="47.4289" lon="6.79581">
        <ele>493.05</ele>
        <time>2016-11-13T09:06:57Z</time>
      </trkpt>
      <trkpt lat="47.42872" lon="6.79574">
        <ele>494.4</ele>
        <time>2016-11-13T09:07:01Z</time>
      </trkpt>
      <trkpt lat="47.42851" lon="6.79563">
        <ele>495.97</ele>
        <time>2016-11-13T09:07:05Z</time>
      </trkpt>
      <trkpt lat="47.42831" lon="6.79561">
        <ele>496.48</ele>
        <time>2016-11-13T09:07:08Z</time>
      </trkpt>
      <trkpt lat="47.42812" lon="6.79573">
        <ele>495.55</ele>
        <time>2016-11-13T09:07:11Z</time>
      </trkpt>
      <trkpt lat="47.42794" lon="6.79581">
        <ele>495.26</ele>
        <time>2016-11-13T09:07:16Z</time>
      </trkpt>
      <trkpt lat="47.42773" lon="6.79576">
        <ele>495.81</ele>
        <time>2016-11-13T09:07:21Z</time>
      </trkpt>
      <trkpt lat="47.42754" lon="6.79568">
        <ele>496.41</ele>
        <time>2016-11-13T09:07:26Z</time>
      </trkpt>
      <trkpt lat="47.42735" lon="6.79564">
        <ele>497.35</ele>
        <time>2016-11-13T09:07:31Z</time>
      </trkpt>
      <trkpt lat="47.42715" lon="6.79559">
        <ele>498.23</ele>
        <time>2016-11-13T09:07:37Z</time>
      </trkpt>
      <trkpt lat="47.42696" lon="6.79562">
        <ele>500.05</ele>
        <time>2016-11-13T09:07:41Z</time>
      </trkpt>
      <trkpt lat="47.42676" lon="6.79557">
        <ele>501.17</ele>
        <time>2016-11-13T09:07:45Z</time>
      </trkpt>
      <trkpt lat="47.42653" lon="6.7955">
        <ele>503.07</ele>
        <time>2016-11-13T09:07:49Z</time>
      </trkpt>
      <trkpt lat="47.42632" lon="6.79546">
        <ele>500.32</ele>
        <time>2016-11-13T09:07:56Z</time>
      </trkpt>
      <trkpt lat="47.42612" lon="6.79546">
        <ele>500.67</ele>
        <time>2016-11-13T09:08:02Z</time>
      </trkpt>
      <trkpt lat="47.42591" lon="6.79549">
        <ele>501.24</ele>
        <time>2016-11-13T09:08:11Z</time>
      </trkpt>
      <trkpt lat="47.42572" lon="6.79544">
        <ele>501.01</ele>
        <time>2016-11-13T09:08:18Z</time>
      </trkpt>
      <trkpt lat="47.42553" lon="6.79543">
        <ele>501.19</ele>
        <time>2016-11-13T09:08:24Z</time>
      </trkpt>
      <trkpt lat="47.42533" lon="6.79543">
        <ele>501.48</ele>
        <time>2016-11-13T09:08:29Z</time>
      </trkpt>
      <trkpt lat="47.42513" lon="6.79542">
        <ele>502.41</ele>
        <time>2016-11-13T09:08:33Z</time>
      </trkpt>
      <trkpt lat="47.42495" lon="6.79536">
        <ele>501.14</ele>
        <time>2016-11-13T09:08:37Z</time>
      </trkpt>
      <trkpt lat="47.42477" lon="6.79529">
        <ele>502.62</ele>
        <time>2016-11-13T09:08:41Z</time>
      </trkpt>
      <trkpt lat="47.42457" lon="6.79525">
        <ele>502.89</ele>
        <time>2016-11-13T09:08:44Z</time>
      </trkpt>
      <trkpt lat="47.42438" lon="6.79527">
        <ele>502.29</ele>
        <time>2016-11-13T09:08:47Z</time>
      </trkpt>
      <trkpt lat="47.42414" lon="6.79522">
        <ele>501.43</ele>
        <time>2016-11-13T09:08:51Z</time>
      </trkpt>
      <trkpt lat="47.42394" lon="6.79516">
        <ele>503.4</ele>
        <time>2016-11-13T09:08:55Z</time>
      </trkpt>
      <trkpt lat="47.42373" lon="6.79512">
        <ele>504.18</ele>
        <time>2016-11-13T09:09:00Z</time>
      </trkpt>
      <trkpt lat="47.42352" lon="6.79511">
        <ele>502.47</ele>
        <time>2016-11-13T09:09:04Z</time>
      </trkpt>
      <trkpt lat="47.42333" lon="6.79507">
        <ele>501.4</ele>
        <time>2016-11-13T09:09:08Z</time>
      </trkpt>
      <trkpt lat="47.42315" lon="6.79505">
        <ele>500.26</ele>
        <time>2016-11-13T09:09:11Z</time>
      </trkpt>
      <trkpt lat="47.42296" lon="6.79501">
        <ele>497.12</ele>
        <time>2016-11-13T09:09:15Z</time>
      </trkpt>
      <trkpt lat="47.42275" lon="6.79499">
        <ele>495</ele>
        <time>2016-11-13T09:09:19Z</time>
      </trkpt>
      <trkpt lat="47.42258" lon="6.79492">
        <ele>495.36</ele>
        <time>2016-11-13T09:09:23Z</time>
      </trkpt>
      <trkpt lat="47.42237" lon="6.79493">
        <ele>500.48</ele>
        <time>2016-11-13T09:09:28Z</time>
      </trkpt>
      <trkpt lat="47.42218" lon="6.79492">
        <ele>500.67</ele>
        <time>2016-11-13T09:09:32Z</time>
      </trkpt>
      <trkpt lat="47.42198" lon="6.79489">
        <ele>498.38</ele>
        <time>2016-11-13T09:09:36Z</time>
      </trkpt>
      <trkpt lat="47.42177" lon="6.7949">
        <ele>497.06</ele>
        <time>2016-11-13T09:09:40Z</time>
      </trkpt>
      <trkpt lat="47.42155" lon="6.79486">
        <ele>489.2</ele>
        <time>2016-11-13T09:09:44Z</time>
      </trkpt>
      <trkpt lat="47.42137" lon="6.79481">
        <ele>486.03</ele>
        <time>2016-11-13T09:09:49Z</time>
      </trkpt>
      <trkpt lat="47.42117" lon="6.79478">
        <ele>484.88</ele>
        <time>2016-11-13T09:09:56Z</time>
      </trkpt>
      <trkpt lat="47.42099" lon="6.7948">
        <ele>484.21</ele>
        <time>2016-11-13T09:10:02Z</time>
      </trkpt>
      <trkpt lat="47.4208" lon="6.79486">
        <ele>484</ele>
        <time>2016-11-13T09:10:11Z</time>
      </trkpt>
      <trkpt lat="47.42061" lon="6.79483">
        <ele>483.86</ele>
        <time>2016-11-13T09:10:19Z</time>
      </trkpt>
      <trkpt lat="47.42044" lon="6.79491">
        <ele>484.27</ele>
        <time>2016-11-13T09:10:25Z</time>
      </trkpt>
      <trkpt lat="47.42025" lon="6.79497">
        <ele>484.21</ele>
        <time>2016-11-13T09:10:31Z</time>
      </trkpt>
      <trkpt lat="47.42007" lon="6.79497">
        <ele>484.66</ele>
        <time>2016-11-13T09:10:38Z</time>
      </trkpt>
      <trkpt lat="47.41987" lon="6.79496">
        <ele>485.81</ele>
        <time>2016-11-13T09:10:47Z</time>
      </trkpt>
      <trkpt lat="47.41972" lon="6.79513">
        <ele>486.67</ele>
        <time>2016-11-13T09:10:52Z</time>
      </trkpt>
      <trkpt lat="47.41959" lon="6.79535">
        <ele>487.92</ele>
        <time>2016-11-13T09:10:58Z</time>
      </trkpt>
      <trkpt lat="47.41945" lon="6.7956">
        <ele>491.6</ele>
        <time>2016-11-13T09:11:04Z</time>
      </trkpt>
      <trkpt lat="47.41937" lon="6.79588">
        <ele>494.69</ele>
        <time>2016-11-13T09:11:09Z</time>
      </trkpt>
      <trkpt lat="47.41926" lon="6.7961">
        <ele>498.71</ele>
        <time>2016-11-13T09:11:14Z</time>
      </trkpt>
      <trkpt lat="47.41917" lon="6.7964">
        <ele>499.16</ele>
        <time>2016-11-13T09:11:19Z</time>
      </trkpt>
      <trkpt lat="47.41912" lon="6.7967">
        <ele>499.86</ele>
        <time>2016-11-13T09:11:24Z</time>
      </trkpt>
      <trkpt lat="47.41914" lon="6.79699">
        <ele>499.78</ele>
        <time>2016-11-13T09:11:31Z</time>
      </trkpt>
      <trkpt lat="47.41916" lon="6.79727">
        <ele>500.16</ele>
        <time>2016-11-13T09:11:37Z</time>
      </trkpt>
      <trkpt lat="47.41918" lon="6.79753">
        <ele>500.7</ele>
        <time>2016-11-13T09:11:42Z</time>
      </trkpt>
      <trkpt lat="47.41913" lon="6.7978">
        <ele>501.2</ele>
        <time>2016-11-13T09:11:47Z</time>
      </trkpt>
      <trkpt lat="47.41903" lon="6.79807">
        <ele>501.52</ele>
        <time>2016-11-13T09:11:52Z</time>
      </trkpt>
      <trkpt lat="47.41903" lon="6.79837">
        <ele>501.94</ele>
        <time>2016-11-13T09:11:58Z</time>
      </trkpt>
      <trkpt lat="47.41902" lon="6.79864">
        <ele>502.27</ele>
        <time>2016-11-13T09:12:03Z</time>
      </trkpt>
      <trkpt lat="47.41899" lon="6.79895">
        <ele>501.41</ele>
        <time>2016-11-13T09:12:10Z</time>
      </trkpt>
      <trkpt lat="47.41896" lon="6.79926">
        <ele>501.43</ele>
        <time>2016-11-13T09:12:16Z</time>
      </trkpt>
      <trkpt lat="47.4189" lon="6.79957">
        <ele>501.69</ele>
        <time>2016-11-13T09:12:21Z</time>
      </trkpt>
      <trkpt lat="47.41883" lon="6.79982">
        <ele>502.43</ele>
        <time>2016-11-13T09:12:26Z</time>
      </trkpt>
      <trkpt lat="47.41872" lon="6.80012">
        <ele>505.06</ele>
        <time>2016-11-13T09:12:31Z</time>
      </trkpt>
      <trkpt lat="47.41859" lon="6.80034">
        <ele>504.86</ele>
        <time>2016-11-13T09:12:34Z</time>
      </trkpt>
      <trkpt lat="47.4184" lon="6.80048">
        <ele>505.28</ele>
        <time>2016-11-13T09:12:39Z</time>
      </trkpt>
      <trkpt lat="47.41822" lon="6.80054">
        <ele>505.79</ele>
        <time>2016-11-13T09:12:47Z</time>
      </trkpt>
      <trkpt lat="47.41803" lon="6.80043">
        <ele>505.22</ele>
        <time>2016-11-13T09:13:07Z</time>
      </trkpt>
      <trkpt lat="47.4179" lon="6.8002">
        <ele>504.7</ele>
        <time>2016-11-13T09:13:31Z</time>
      </trkpt>
      <trkpt lat="47.41776" lon="6.79997">
        <ele>503.55</ele>
        <time>2016-11-13T09:13:38Z</time>
      </trkpt>
      <trkpt lat="47.41758" lon="6.79994">
        <ele>500.89</ele>
        <time>2016-11-13T09:13:58Z</time>
      </trkpt>
      <trkpt lat="47.4174" lon="6.79985">
        <ele>499.57</ele>
        <time>2016-11-13T09:14:19Z</time>
      </trkpt>
      <trkpt lat="47.41722" lon="6.79972">
        <ele>502.82</ele>
        <time>2016-11-13T09:14:37Z</time>
      </trkpt>
      <trkpt lat="47.41705" lon="6.79961">
        <ele>506.88</ele>
        <time>2016-11-13T09:14:59Z</time>
      </trkpt>
      <trkpt lat="47.41687" lon="6.79949">
        <ele>509.05</ele>
        <time>2016-11-13T09:15:08Z</time>
      </trkpt>
      <trkpt lat="47.41671" lon="6.79935">
        <ele>509.74</ele>
        <time>2016-11-13T09:15:18Z</time>
      </trkpt>
      <trkpt lat="47.41652" lon="6.79923">
        <ele>511.54</ele>
        <time>2016-11-13T09:15:28Z</time>
      </trkpt>
      <trkpt lat="47.41636" lon="6.79908">
        <ele>512.03</ele>
        <time>2016-11-13T09:15:37Z</time>
      </trkpt>
      <trkpt lat="47.4162" lon="6.79894">
        <ele>511.2</ele>
        <time>2016-11-13T09:15:46Z</time>
      </trkpt>
      <trkpt lat="47.41605" lon="6.79877">
        <ele>510.51</ele>
        <time>2016-11-13T09:15:55Z</time>
      </trkpt>
      <trkpt lat="47.41587" lon="6.79867">
        <ele>509.89</ele>
        <time>2016-11-13T09:16:04Z</time>
      </trkpt>
      <trkpt lat="47.4159" lon="6.79893">
        <ele>504.47</ele>
        <time>2016-11-13T09:16:27Z</time>
      </trkpt>
      <trkpt lat="47.416" lon="6.79916">
        <ele>502.58</ele>
        <time>2016-11-13T09:16:38Z</time>
      </trkpt>
      <trkpt lat="47.41613" lon="6.7994">
        <ele>502.03</ele>
        <time>2016-11-13T09:16:50Z</time>
      </trkpt>
      <trkpt lat="47.41626" lon="6.7996">
        <ele>502.95</ele>
        <time>2016-11-13T09:16:59Z</time>
      </trkpt>
      <trkpt lat="47.41641" lon="6.79979">
        <ele>504.05</ele>
        <time>2016-11-13T09:17:07Z</time>
      </trkpt>
      <trkpt lat="47.41655" lon="6.8">
        <ele>504.66</ele>
        <time>2016-11-13T09:17:15Z</time>
      </trkpt>
      <trkpt lat="47.4167" lon="6.80019">
        <ele>505.17</ele>
        <time>2016-11-13T09:17:23Z</time>
      </trkpt>
      <trkpt lat="47.41685" lon="6.80038">
        <ele>505.75</ele>
        <time>2016-11-13T09:17:31Z</time>
      </trkpt>
      <trkpt lat="47.417" lon="6.80055">
        <ele>506.35</ele>
        <time>2016-11-13T09:17:39Z</time>
      </trkpt>
      <trkpt lat="47.41716" lon="6.80075">
        <ele>507.14</ele>
        <time>2016-11-13T09:17:47Z</time>
      </trkpt>
      <trkpt lat="47.41733" lon="6.8009">
        <ele>508.1</ele>
        <time>2016-11-13T09:17:54Z</time>
      </trkpt>
      <trkpt lat="47.41748" lon="6.80109">
        <ele>509.08</ele>
        <time>2016-11-13T09:18:01Z</time>
      </trkpt>
      <trkpt lat="47.41765" lon="6.80126">
        <ele>509.86</ele>
        <time>2016-11-13T09:18:09Z</time>
      </trkpt>
      <trkpt lat="47.41781" lon="6.80144">
        <ele>510.01</ele>
        <time>2016-11-13T09:18:17Z</time>
      </trkpt>
      <trkpt lat="47.41797" lon="6.8016">
        <ele>510.6</ele>
        <time>2016-11-13T09:18:25Z</time>
      </trkpt>
      <trkpt lat="47.41813" lon="6.80174">
        <ele>510.24</ele>
        <time>2016-11-13T09:18:33Z</time>
      </trkpt>
      <trkpt lat="47.4183" lon="6.8019">
        <ele>510.49</ele>
        <time>2016-11-13T09:18:41Z</time>
      </trkpt>
      <trkpt lat="47.41846" lon="6.80202">
        <ele>511.11</ele>
        <time>2016-11-13T09:18:52Z</time>
      </trkpt>
      <trkpt lat="47.4186" lon="6.80221">
        <ele>511.26</ele>
        <time>2016-11-13T09:19:06Z</time>
      </trkpt>
      <trkpt lat="47.41871" lon="6.80242">
        <ele>511.62</ele>
        <time>2016-11-13T09:19:42Z</time>
      </trkpt>
      <trkpt lat="47.41889" lon="6.80236">
        <ele>514.04</ele>
        <time>2016-11-13T09:19:56Z</time>
      </trkpt>
      <trkpt lat="47.4191" lon="6.80236">
        <ele>515.66</ele>
        <time>2016-11-13T09:20:05Z</time>
      </trkpt>
      <trkpt lat="47.41929" lon="6.80233">
        <ele>516.3</ele>
        <time>2016-11-13T09:20:15Z</time>
      </trkpt>
      <trkpt lat="47.41947" lon="6.80229">
        <ele>518.26</ele>
        <time>2016-11-13T09:20:25Z</time>
      </trkpt>
      <trkpt lat="47.41967" lon="6.80222">
        <ele>520.69</ele>
        <time>2016-11-13T09:20:33Z</time>
      </trkpt>
      <trkpt lat="47.41986" lon="6.80218">
        <ele>523.73</ele>
        <time>2016-11-13T09:20:42Z</time>
      </trkpt>
      <trkpt lat="47.42006" lon="6.80214">
        <ele>525.56</ele>
        <time>2016-11-13T09:20:50Z</time>
      </trkpt>
      <trkpt lat="47.42006" lon="6.80241">
        <ele>528.73</ele>
        <time>2016-11-13T09:21:04Z</time>
      </trkpt>
      <trkpt lat="47.41992" lon="6.80257">
        <ele>529.57</ele>
        <time>2016-11-13T09:21:10Z</time>
      </trkpt>
      <trkpt lat="47.41977" lon="6.80274">
        <ele>530.02</ele>
        <time>2016-11-13T09:21:14Z</time>
      </trkpt>
      <trkpt lat="47.41961" lon="6.80289">
        <ele>530.21</ele>
        <time>2016-11-13T09:21:20Z</time>
      </trkpt>
      <trkpt lat="47.41943" lon="6.80304">
        <ele>530.92</ele>
        <time>2016-11-13T09:21:27Z</time>
      </trkpt>
      <trkpt lat="47.41924" lon="6.80314">
        <ele>531.05</ele>
        <time>2016-11-13T09:21:34Z</time>
      </trkpt>
      <trkpt lat="47.41905" lon="6.80322">
        <ele>531.67</ele>
        <time>2016-11-13T09:21:40Z</time>
      </trkpt>
      <trkpt lat="47.41885" lon="6.80329">
        <ele>532.51</ele>
        <time>2016-11-13T09:21:47Z</time>
      </trkpt>
      <trkpt lat="47.41866" lon="6.80337">
        <ele>532.46</ele>
        <time>2016-11-13T09:21:54Z</time>
      </trkpt>
      <trkpt lat="47.4185" lon="6.80327">
        <ele>532.25</ele>
        <time>2016-11-13T09:22:02Z</time>
      </trkpt>
      <trkpt lat="47.4183" lon="6.80322">
        <ele>532.53</ele>
        <time>2016-11-13T09:22:10Z</time>
      </trkpt>
      <trkpt lat="47.41811" lon="6.80325">
        <ele>532.87</ele>
        <time>2016-11-13T09:22:17Z</time>
      </trkpt>
      <trkpt lat="47.41792" lon="6.80326">
        <ele>533.32</ele>
        <time>2016-11-13T09:22:25Z</time>
      </trkpt>
      <trkpt lat="47.41773" lon="6.80321">
        <ele>534.55</ele>
        <time>2016-11-13T09:22:33Z</time>
      </trkpt>
      <trkpt lat="47.41754" lon="6.80319">
        <ele>535.41</ele>
        <time>2016-11-13T09:22:42Z</time>
      </trkpt>
      <trkpt lat="47.41733" lon="6.80318">
        <ele>537.23</ele>
        <time>2016-11-13T09:22:51Z</time>
      </trkpt>
      <trkpt lat="47.41715" lon="6.80307">
        <ele>539.06</ele>
        <time>2016-11-13T09:23:02Z</time>
      </trkpt>
      <trkpt lat="47.41696" lon="6.80302">
        <ele>541.5</ele>
        <time>2016-11-13T09:23:12Z</time>
      </trkpt>
      <trkpt lat="47.41678" lon="6.80295">
        <ele>544.56</ele>
        <time>2016-11-13T09:23:22Z</time>
      </trkpt>
      <trkpt lat="47.41659" lon="6.80284">
        <ele>547.07</ele>
        <time>2016-11-13T09:23:33Z</time>
      </trkpt>
      <trkpt lat="47.41641" lon="6.80277">
        <ele>549.99</ele>
        <time>2016-11-13T09:23:42Z</time>
      </trkpt>
      <trkpt lat="47.41626" lon="6.80258">
        <ele>552.84</ele>
        <time>2016-11-13T09:23:51Z</time>
      </trkpt>
      <trkpt lat="47.4161" lon="6.80246">
        <ele>554.96</ele>
        <time>2016-11-13T09:23:58Z</time>
      </trkpt>
      <trkpt lat="47.41591" lon="6.80237">
        <ele>558.43</ele>
        <time>2016-11-13T09:24:08Z</time>
      </trkpt>
      <trkpt lat="47.41573" lon="6.80226">
        <ele>560.9</ele>
        <time>2016-11-13T09:24:18Z</time>
      </trkpt>
      <trkpt lat="47.41564" lon="6.80202">
        <ele>562.59</ele>
        <time>2016-11-13T09:24:25Z</time>
      </trkpt>
      <trkpt lat="47.41552" lon="6.80181">
        <ele>563.4</ele>
        <time>2016-11-13T09:24:30Z</time>
      </trkpt>
      <trkpt lat="47.41534" lon="6.8018">
        <ele>563.83</ele>
        <time>2016-11-13T09:24:36Z</time>
      </trkpt>
      <trkpt lat="47.41518" lon="6.80165">
        <ele>563.36</ele>
        <time>2016-11-13T09:24:43Z</time>
      </trkpt>
      <trkpt lat="47.41498" lon="6.8017">
        <ele>562.52</ele>
        <time>2016-11-13T09:24:50Z</time>
      </trkpt>
      <trkpt lat="47.4148" lon="6.80171">
        <ele>562.66</ele>
        <time>2016-11-13T09:24:56Z</time>
      </trkpt>
      <trkpt lat="47.41462" lon="6.80168">
        <ele>562.39</ele>
        <time>2016-11-13T09:25:07Z</time>
      </trkpt>
      <trkpt lat="47.41444" lon="6.80178">
        <ele>562.64</ele>
        <time>2016-11-13T09:25:15Z</time>
      </trkpt>
      <trkpt lat="47.41436" lon="6.80152">
        <ele>564.05</ele>
        <time>2016-11-13T09:25:24Z</time>
      </trkpt>
      <trkpt lat="47.4143" lon="6.80127">
        <ele>571.53</ele>
        <time>2016-11-13T09:25:29Z</time>
      </trkpt>
      <trkpt lat="47.41416" lon="6.80105">
        <ele>575.03</ele>
        <time>2016-11-13T09:25:35Z</time>
      </trkpt>
      <trkpt lat="47.41398" lon="6.80094">
        <ele>574.38</ele>
        <time>2016-11-13T09:25:41Z</time>
      </trkpt>
      <trkpt lat="47.41378" lon="6.80093">
        <ele>573.43</ele>
        <time>2016-11-13T09:25:47Z</time>
      </trkpt>
      <trkpt lat="47.41359" lon="6.80087">
        <ele>572.28</ele>
        <time>2016-11-13T09:25:55Z</time>
      </trkpt>
      <trkpt lat="47.4134" lon="6.80079">
        <ele>569.89</ele>
        <time>2016-11-13T09:26:05Z</time>
      </trkpt>
      <trkpt lat="47.41321" lon="6.80072">
        <ele>569.69</ele>
        <time>2016-11-13T09:26:12Z</time>
      </trkpt>
      <trkpt lat="47.41302" lon="6.80065">
        <ele>569.73</ele>
        <time>2016-11-13T09:26:19Z</time>
      </trkpt>
      <trkpt lat="47.41282" lon="6.80057">
        <ele>569.71</ele>
        <time>2016-11-13T09:26:28Z</time>
      </trkpt>
      <trkpt lat="47.41265" lon="6.80048">
        <ele>570.82</ele>
        <time>2016-11-13T09:26:36Z</time>
      </trkpt>
      <trkpt lat="47.41247" lon="6.80042">
        <ele>571.81</ele>
        <time>2016-11-13T09:26:43Z</time>
      </trkpt>
      <trkpt lat="47.41231" lon="6.80029">
        <ele>572.71</ele>
        <time>2016-11-13T09:26:49Z</time>
      </trkpt>
      <trkpt lat="47.41213" lon="6.80019">
        <ele>573.72</ele>
        <time>2016-11-13T09:26:56Z</time>
      </trkpt>
      <trkpt lat="47.41195" lon="6.80015">
        <ele>575.18</ele>
        <time>2016-11-13T09:27:04Z</time>
      </trkpt>
      <trkpt lat="47.41175" lon="6.8001">
        <ele>577.83</ele>
        <time>2016-11-13T09:27:13Z</time>
      </trkpt>
      <trkpt lat="47.41157" lon="6.80012">
        <ele>579.71</ele>
        <time>2016-11-13T09:27:21Z</time>
      </trkpt>
      <trkpt lat="47.41139" lon="6.80019">
        <ele>580.71</ele>
        <time>2016-11-13T09:27:28Z</time>
      </trkpt>
      <trkpt lat="47.41121" lon="6.80029">
        <ele>581.43</ele>
        <time>2016-11-13T09:27:35Z</time>
      </trkpt>
      <trkpt lat="47.41102" lon="6.80033">
        <ele>582.08</ele>
        <time>2016-11-13T09:27:44Z</time>
      </trkpt>
      <trkpt lat="47.41084" lon="6.80038">
        <ele>583.05</ele>
        <time>2016-11-13T09:27:51Z</time>
      </trkpt>
      <trkpt lat="47.41086" lon="6.80064">
        <ele>583.42</ele>
        <time>2016-11-13T09:28:28Z</time>
      </trkpt>
      <trkpt lat="47.41074" lon="6.80085">
        <ele>586.06</ele>
        <time>2016-11-13T09:28:43Z</time>
      </trkpt>
      <trkpt lat="47.41059" lon="6.80063">
        <ele>588.15</ele>
        <time>2016-11-13T09:28:53Z</time>
      </trkpt>
      <trkpt lat="47.41043" lon="6.80046">
        <ele>588.45</ele>
        <time>2016-11-13T09:29:07Z</time>
      </trkpt>
      <trkpt lat="47.41031" lon="6.80025">
        <ele>592.25</ele>
        <time>2016-11-13T09:30:10Z</time>
      </trkpt>
      <trkpt lat="47.41025" lon="6.79997">
        <ele>591.47</ele>
        <time>2016-11-13T09:30:21Z</time>
      </trkpt>
      <trkpt lat="47.41004" lon="6.79962">
        <ele>592.83</ele>
        <time>2016-11-13T09:30:40Z</time>
      </trkpt>
      <trkpt lat="47.40985" lon="6.79941">
        <ele>594.57</ele>
        <time>2016-11-13T09:30:48Z</time>
      </trkpt>
      <trkpt lat="47.40966" lon="6.79937">
        <ele>593.88</ele>
        <time>2016-11-13T09:31:11Z</time>
      </trkpt>
      <trkpt lat="47.40948" lon="6.79932">
        <ele>593.02</ele>
        <time>2016-11-13T09:31:15Z</time>
      </trkpt>
      <trkpt lat="47.40931" lon="6.79915">
        <ele>592.31</ele>
        <time>2016-11-13T09:31:23Z</time>
      </trkpt>
      <trkpt lat="47.40918" lon="6.79896">
        <ele>592.63</ele>
        <time>2016-11-13T09:31:30Z</time>
      </trkpt>
      <trkpt lat="47.40907" lon="6.79874">
        <ele>592.58</ele>
        <time>2016-11-13T09:31:38Z</time>
      </trkpt>
      <trkpt lat="47.40891" lon="6.79859">
        <ele>592.06</ele>
        <time>2016-11-13T09:31:44Z</time>
      </trkpt>
      <trkpt lat="47.40876" lon="6.7984">
        <ele>591.97</ele>
        <time>2016-11-13T09:31:53Z</time>
      </trkpt>
      <trkpt lat="47.40863" lon="6.79818">
        <ele>593.25</ele>
        <time>2016-11-13T09:31:59Z</time>
      </trkpt>
      <trkpt lat="47.40848" lon="6.79796">
        <ele>594.13</ele>
        <time>2016-11-13T09:32:06Z</time>
      </trkpt>
      <trkpt lat="47.40833" lon="6.79776">
        <ele>594.08</ele>
        <time>2016-11-13T09:32:12Z</time>
      </trkpt>
      <trkpt lat="47.40816" lon="6.79765">
        <ele>593.59</ele>
        <time>2016-11-13T09:32:18Z</time>
      </trkpt>
      <trkpt lat="47.408" lon="6.79747">
        <ele>592.45</ele>
        <time>2016-11-13T09:32:26Z</time>
      </trkpt>
      <trkpt lat="47.40787" lon="6.79729">
        <ele>591.46</ele>
        <time>2016-11-13T09:32:33Z</time>
      </trkpt>
      <trkpt lat="47.40774" lon="6.79709">
        <ele>591.88</ele>
        <time>2016-11-13T09:32:42Z</time>
      </trkpt>
      <trkpt lat="47.40757" lon="6.79693">
        <ele>591.92</ele>
        <time>2016-11-13T09:32:51Z</time>
      </trkpt>
      <trkpt lat="47.40737" lon="6.79684">
        <ele>592.57</ele>
        <time>2016-11-13T09:33:00Z</time>
      </trkpt>
      <trkpt lat="47.40718" lon="6.79677">
        <ele>593.81</ele>
        <time>2016-11-13T09:33:07Z</time>
      </trkpt>
      <trkpt lat="47.40698" lon="6.79668">
        <ele>594.25</ele>
        <time>2016-11-13T09:33:13Z</time>
      </trkpt>
      <trkpt lat="47.40678" lon="6.79678">
        <ele>595.25</ele>
        <time>2016-11-13T09:33:22Z</time>
      </trkpt>
      <trkpt lat="47.40661" lon="6.79692">
        <ele>597.41</ele>
        <time>2016-11-13T09:33:37Z</time>
      </trkpt>
      <trkpt lat="47.40646" lon="6.79712">
        <ele>597.69</ele>
        <time>2016-11-13T09:33:45Z</time>
      </trkpt>
      <trkpt lat="47.4063" lon="6.79725">
        <ele>599.39</ele>
        <time>2016-11-13T09:33:52Z</time>
      </trkpt>
      <trkpt lat="47.40612" lon="6.79741">
        <ele>600.77</ele>
        <time>2016-11-13T09:34:00Z</time>
      </trkpt>
      <trkpt lat="47.40589" lon="6.79752">
        <ele>601</ele>
        <time>2016-11-13T09:34:09Z</time>
      </trkpt>
      <trkpt lat="47.40569" lon="6.79757">
        <ele>601.41</ele>
        <time>2016-11-13T09:34:14Z</time>
      </trkpt>
      <trkpt lat="47.40551" lon="6.79759">
        <ele>602</ele>
        <time>2016-11-13T09:34:18Z</time>
      </trkpt>
      <trkpt lat="47.40528" lon="6.79759">
        <ele>603.06</ele>
        <time>2016-11-13T09:34:24Z</time>
      </trkpt>
      <trkpt lat="47.40509" lon="6.79764">
        <ele>608.27</ele>
        <time>2016-11-13T09:34:29Z</time>
      </trkpt>
      <trkpt lat="47.40491" lon="6.79776">
        <ele>604.22</ele>
        <time>2016-11-13T09:34:34Z</time>
      </trkpt>
      <trkpt lat="47.40474" lon="6.79795">
        <ele>601.36</ele>
        <time>2016-11-13T09:34:38Z</time>
      </trkpt>
      <trkpt lat="47.4046" lon="6.79815">
        <ele>601.51</ele>
        <time>2016-11-13T09:34:43Z</time>
      </trkpt>
      <trkpt lat="47.40441" lon="6.79813">
        <ele>602.22</ele>
        <time>2016-11-13T09:34:48Z</time>
      </trkpt>
      <trkpt lat="47.4042" lon="6.7981">
        <ele>602.45</ele>
        <time>2016-11-13T09:34:54Z</time>
      </trkpt>
      <trkpt lat="47.404" lon="6.79817">
        <ele>602.63</ele>
        <time>2016-11-13T09:35:00Z</time>
      </trkpt>
      <trkpt lat="47.40378" lon="6.79827">
        <ele>602.85</ele>
        <time>2016-11-13T09:35:05Z</time>
      </trkpt>
      <trkpt lat="47.40357" lon="6.79828">
        <ele>603.22</ele>
        <time>2016-11-13T09:35:10Z</time>
      </trkpt>
      <trkpt lat="47.40336" lon="6.79829">
        <ele>604.73</ele>
        <time>2016-11-13T09:35:15Z</time>
      </trkpt>
      <trkpt lat="47.40316" lon="6.79827">
        <ele>606.08</ele>
        <time>2016-11-13T09:35:19Z</time>
      </trkpt>
      <trkpt lat="47.40297" lon="6.79826">
        <ele>606.08</ele>
        <time>2016-11-13T09:35:23Z</time>
      </trkpt>
      <trkpt lat="47.40277" lon="6.79835">
        <ele>605.27</ele>
        <time>2016-11-13T09:35:29Z</time>
      </trkpt>
      <trkpt lat="47.40259" lon="6.79848">
        <ele>600.4</ele>
        <time>2016-11-13T09:35:34Z</time>
      </trkpt>
      <trkpt lat="47.40251" lon="6.79881">
        <ele>596.58</ele>
        <time>2016-11-13T09:35:38Z</time>
      </trkpt>
      <trkpt lat="47.40251" lon="6.7991">
        <ele>593.49</ele>
        <time>2016-11-13T09:35:41Z</time>
      </trkpt>
      <trkpt lat="47.40254" lon="6.79943">
        <ele>590.09</ele>
        <time>2016-11-13T09:35:44Z</time>
      </trkpt>
      <trkpt lat="47.40264" lon="6.79979">
        <ele>585.59</ele>
        <time>2016-11-13T09:35:47Z</time>
      </trkpt>
      <trkpt lat="47.40275" lon="6.80011">
        <ele>582.26</ele>
        <time>2016-11-13T09:35:50Z</time>
      </trkpt>
      <trkpt lat="47.40285" lon="6.8004">
        <ele>579.16</ele>
        <time>2016-11-13T09:35:53Z</time>
      </trkpt>
      <trkpt lat="47.40295" lon="6.80064">
        <ele>576.91</ele>
        <time>2016-11-13T09:35:56Z</time>
      </trkpt>
      <trkpt lat="47.40305" lon="6.80091">
        <ele>575.54</ele>
        <time>2016-11-13T09:35:59Z</time>
      </trkpt>
      <trkpt lat="47.40316" lon="6.80122">
        <ele>575.15</ele>
        <time>2016-11-13T09:36:03Z</time>
      </trkpt>
      <trkpt lat="47.40325" lon="6.80148">
        <ele>575.83</ele>
        <time>2016-11-13T09:36:06Z</time>
      </trkpt>
      <trkpt lat="47.40336" lon="6.80173">
        <ele>575.46</ele>
        <time>2016-11-13T09:36:09Z</time>
      </trkpt>
      <trkpt lat="47.40348" lon="6.802">
        <ele>575.29</ele>
        <time>2016-11-13T09:36:12Z</time>
      </trkpt>
      <trkpt lat="47.4036" lon="6.80224">
        <ele>573.32</ele>
        <time>2016-11-13T09:36:15Z</time>
      </trkpt>
      <trkpt lat="47.40371" lon="6.80252">
        <ele>571.95</ele>
        <time>2016-11-13T09:36:18Z</time>
      </trkpt>
      <trkpt lat="47.40383" lon="6.80278">
        <ele>570.93</ele>
        <time>2016-11-13T09:36:21Z</time>
      </trkpt>
      <trkpt lat="47.40393" lon="6.80306">
        <ele>570.79</ele>
        <time>2016-11-13T09:36:24Z</time>
      </trkpt>
      <trkpt lat="47.40398" lon="6.80339">
        <ele>569.78</ele>
        <time>2016-11-13T09:36:27Z</time>
      </trkpt>
      <trkpt lat="47.404" lon="6.80373">
        <ele>568.21</ele>
        <time>2016-11-13T09:36:30Z</time>
      </trkpt>
      <trkpt lat="47.40404" lon="6.80407">
        <ele>565.14</ele>
        <time>2016-11-13T09:36:33Z</time>
      </trkpt>
      <trkpt lat="47.40413" lon="6.80439">
        <ele>563.42</ele>
        <time>2016-11-13T09:36:36Z</time>
      </trkpt>
      <trkpt lat="47.4042" lon="6.80471">
        <ele>565.91</ele>
        <time>2016-11-13T09:36:39Z</time>
      </trkpt>
      <trkpt lat="47.40427" lon="6.80507">
        <ele>565.46</ele>
        <time>2016-11-13T09:36:42Z</time>
      </trkpt>
      <trkpt lat="47.40432" lon="6.80538">
        <ele>564.65</ele>
        <time>2016-11-13T09:36:45Z</time>
      </trkpt>
      <trkpt lat="47.40439" lon="6.8057">
        <ele>563.73</ele>
        <time>2016-11-13T09:36:48Z</time>
      </trkpt>
      <trkpt lat="47.40447" lon="6.80596">
        <ele>561.13</ele>
        <time>2016-11-13T09:36:51Z</time>
      </trkpt>
      <trkpt lat="47.40456" lon="6.80622">
        <ele>560.5</ele>
        <time>2016-11-13T09:36:54Z</time>
      </trkpt>
      <trkpt lat="47.40467" lon="6.80653">
        <ele>559.7</ele>
        <time>2016-11-13T09:36:58Z</time>
      </trkpt>
      <trkpt lat="47.40479" lon="6.80683">
        <ele>563.03</ele>
        <time>2016-11-13T09:37:02Z</time>
      </trkpt>
      <trkpt lat="47.40489" lon="6.80712">
        <ele>569.28</ele>
        <time>2016-11-13T09:37:06Z</time>
      </trkpt>
      <trkpt lat="47.405" lon="6.8074">
        <ele>568.32</ele>
        <time>2016-11-13T09:37:10Z</time>
      </trkpt>
      <trkpt lat="47.40514" lon="6.80767">
        <ele>568.17</ele>
        <time>2016-11-13T09:37:14Z</time>
      </trkpt>
      <trkpt lat="47.40526" lon="6.80788">
        <ele>569.31</ele>
        <time>2016-11-13T09:37:18Z</time>
      </trkpt>
      <trkpt lat="47.40536" lon="6.80813">
        <ele>568.01</ele>
        <time>2016-11-13T09:37:23Z</time>
      </trkpt>
      <trkpt lat="47.40539" lon="6.80842">
        <ele>566.03</ele>
        <time>2016-11-13T09:37:28Z</time>
      </trkpt>
      <trkpt lat="47.40542" lon="6.80874">
        <ele>564.71</ele>
        <time>2016-11-13T09:37:32Z</time>
      </trkpt>
      <trkpt lat="47.40543" lon="6.80902">
        <ele>562.88</ele>
        <time>2016-11-13T09:37:36Z</time>
      </trkpt>
      <trkpt lat="47.40543" lon="6.80931">
        <ele>562.13</ele>
        <time>2016-11-13T09:37:41Z</time>
      </trkpt>
      <trkpt lat="47.40541" lon="6.80958">
        <ele>561.78</ele>
        <time>2016-11-13T09:37:46Z</time>
      </trkpt>
      <trkpt lat="47.40537" lon="6.80985">
        <ele>562.34</ele>
        <time>2016-11-13T09:37:52Z</time>
      </trkpt>
      <trkpt lat="47.40535" lon="6.81012">
        <ele>562.42</ele>
        <time>2016-11-13T09:37:57Z</time>
      </trkpt>
      <trkpt lat="47.40528" lon="6.81037">
        <ele>563</ele>
        <time>2016-11-13T09:38:02Z</time>
      </trkpt>
      <trkpt lat="47.40517" lon="6.81059">
        <ele>563.32</ele>
        <time>2016-11-13T09:38:09Z</time>
      </trkpt>
      <trkpt lat="47.40502" lon="6.81038">
        <ele>564.59</ele>
        <time>2016-11-13T09:38:12Z</time>
      </trkpt>
      <trkpt lat="47.40483" lon="6.81026">
        <ele>566.63</ele>
        <time>2016-11-13T09:38:15Z</time>
      </trkpt>
      <trkpt lat="47.40463" lon="6.81024">
        <ele>564.67</ele>
        <time>2016-11-13T09:38:18Z</time>
      </trkpt>
      <trkpt lat="47.40446" lon="6.81047">
        <ele>561.66</ele>
        <time>2016-11-13T09:38:21Z</time>
      </trkpt>
      <trkpt lat="47.40438" lon="6.81074">
        <ele>559.5</ele>
        <time>2016-11-13T09:38:23Z</time>
      </trkpt>
      <trkpt lat="47.40434" lon="6.81107">
        <ele>558.09</ele>
        <time>2016-11-13T09:38:25Z</time>
      </trkpt>
      <trkpt lat="47.40428" lon="6.81137">
        <ele>559.7</ele>
        <time>2016-11-13T09:38:27Z</time>
      </trkpt>
      <trkpt lat="47.40424" lon="6.81167">
        <ele>562</ele>
        <time>2016-11-13T09:38:29Z</time>
      </trkpt>
      <trkpt lat="47.40417" lon="6.81195">
        <ele>561.91</ele>
        <time>2016-11-13T09:38:31Z</time>
      </trkpt>
      <trkpt lat="47.40411" lon="6.81221">
        <ele>560.54</ele>
        <time>2016-11-13T09:38:33Z</time>
      </trkpt>
      <trkpt lat="47.40397" lon="6.81249">
        <ele>557.65</ele>
        <time>2016-11-13T09:38:36Z</time>
      </trkpt>
      <trkpt lat="47.40378" lon="6.81255">
        <ele>557.13</ele>
        <time>2016-11-13T09:38:39Z</time>
      </trkpt>
      <trkpt lat="47.4036" lon="6.81239">
        <ele>557.71</ele>
        <time>2016-11-13T09:38:43Z</time>
      </trkpt>
      <trkpt lat="47.40344" lon="6.81224">
        <ele>557.24</ele>
        <time>2016-11-13T09:38:46Z</time>
      </trkpt>
      <trkpt lat="47.40326" lon="6.81211">
        <ele>555.93</ele>
        <time>2016-11-13T09:38:49Z</time>
      </trkpt>
      <trkpt lat="47.40306" lon="6.81204">
        <ele>553.66</ele>
        <time>2016-11-13T09:38:52Z</time>
      </trkpt>
      <trkpt lat="47.40281" lon="6.81204">
        <ele>551.52</ele>
        <time>2016-11-13T09:38:55Z</time>
      </trkpt>
      <trkpt lat="47.40256" lon="6.81197">
        <ele>552.5</ele>
        <time>2016-11-13T09:38:58Z</time>
      </trkpt>
      <trkpt lat="47.40236" lon="6.81176">
        <ele>551.97</ele>
        <time>2016-11-13T09:39:01Z</time>
      </trkpt>
      <trkpt lat="47.4022" lon="6.81151">
        <ele>549.07</ele>
        <time>2016-11-13T09:39:04Z</time>
      </trkpt>
      <trkpt lat="47.40202" lon="6.8113">
        <ele>547.38</ele>
        <time>2016-11-13T09:39:07Z</time>
      </trkpt>
      <trkpt lat="47.4018" lon="6.81113">
        <ele>545.85</ele>
        <time>2016-11-13T09:39:10Z</time>
      </trkpt>
      <trkpt lat="47.40156" lon="6.81103">
        <ele>542.27</ele>
        <time>2016-11-13T09:39:13Z</time>
      </trkpt>
      <trkpt lat="47.40132" lon="6.81096">
        <ele>538.73</ele>
        <time>2016-11-13T09:39:16Z</time>
      </trkpt>
      <trkpt lat="47.40113" lon="6.81081">
        <ele>532.67</ele>
        <time>2016-11-13T09:39:20Z</time>
      </trkpt>
      <trkpt lat="47.40093" lon="6.81062">
        <ele>532.49</ele>
        <time>2016-11-13T09:39:23Z</time>
      </trkpt>
      <trkpt lat="47.40075" lon="6.81044">
        <ele>533</ele>
        <time>2016-11-13T09:39:26Z</time>
      </trkpt>
      <trkpt lat="47.40059" lon="6.81014">
        <ele>532.44</ele>
        <time>2016-11-13T09:39:29Z</time>
      </trkpt>
      <trkpt lat="47.40053" lon="6.80989">
        <ele>531.24</ele>
        <time>2016-11-13T09:39:31Z</time>
      </trkpt>
      <trkpt lat="47.40046" lon="6.80963">
        <ele>530.38</ele>
        <time>2016-11-13T09:39:33Z</time>
      </trkpt>
      <trkpt lat="47.40036" lon="6.80929">
        <ele>526.85</ele>
        <time>2016-11-13T09:39:36Z</time>
      </trkpt>
      <trkpt lat="47.40023" lon="6.809">
        <ele>525.54</ele>
        <time>2016-11-13T09:39:39Z</time>
      </trkpt>
      <trkpt lat="47.40009" lon="6.80866">
        <ele>524.07</ele>
        <time>2016-11-13T09:39:42Z</time>
      </trkpt>
      <trkpt lat="47.39998" lon="6.80842">
        <ele>524.31</ele>
        <time>2016-11-13T09:39:44Z</time>
      </trkpt>
      <trkpt lat="47.39988" lon="6.80818">
        <ele>524.79</ele>
        <time>2016-11-13T09:39:46Z</time>
      </trkpt>
      <trkpt lat="47.39977" lon="6.80797">
        <ele>522.65</ele>
        <time>2016-11-13T09:39:48Z</time>
      </trkpt>
      <trkpt lat="47.39966" lon="6.80771">
        <ele>520.44</ele>
        <time>2016-11-13T09:39:50Z</time>
      </trkpt>
      <trkpt lat="47.39958" lon="6.80742">
        <ele>518.31</ele>
        <time>2016-11-13T09:39:52Z</time>
      </trkpt>
      <trkpt lat="47.39952" lon="6.80713">
        <ele>517.57</ele>
        <time>2016-11-13T09:39:54Z</time>
      </trkpt>
      <trkpt lat="47.39948" lon="6.80684">
        <ele>517.54</ele>
        <time>2016-11-13T09:39:56Z</time>
      </trkpt>
      <trkpt lat="47.39943" lon="6.80655">
        <ele>517.19</ele>
        <time>2016-11-13T09:39:58Z</time>
      </trkpt>
      <trkpt lat="47.39938" lon="6.80626">
        <ele>514.31</ele>
        <time>2016-11-13T09:40:00Z</time>
      </trkpt>
      <trkpt lat="47.39933" lon="6.806">
        <ele>511.6</ele>
        <time>2016-11-13T09:40:02Z</time>
      </trkpt>
      <trkpt lat="47.39926" lon="6.80562">
        <ele>505.31</ele>
        <time>2016-11-13T09:40:05Z</time>
      </trkpt>
      <trkpt lat="47.3992" lon="6.80534">
        <ele>504.18</ele>
        <time>2016-11-13T09:40:07Z</time>
      </trkpt>
      <trkpt lat="47.39916" lon="6.80503">
        <ele>502.92</ele>
        <time>2016-11-13T09:40:09Z</time>
      </trkpt>
      <trkpt lat="47.39913" lon="6.80475">
        <ele>501.48</ele>
        <time>2016-11-13T09:40:11Z</time>
      </trkpt>
      <trkpt lat="47.39909" lon="6.80448">
        <ele>501.47</ele>
        <time>2016-11-13T09:40:13Z</time>
      </trkpt>
      <trkpt lat="47.39902" lon="6.80422">
        <ele>501.83</ele>
        <time>2016-11-13T09:40:15Z</time>
      </trkpt>
      <trkpt lat="47.39893" lon="6.80399">
        <ele>503.51</ele>
        <time>2016-11-13T09:40:17Z</time>
      </trkpt>
      <trkpt lat="47.3988" lon="6.80375">
        <ele>503.11</ele>
        <time>2016-11-13T09:40:19Z</time>
      </trkpt>
      <trkpt lat="47.39862" lon="6.80359">
        <ele>503.09</ele>
        <time>2016-11-13T09:40:21Z</time>
      </trkpt>
      <trkpt lat="47.39841" lon="6.80348">
        <ele>501.24</ele>
        <time>2016-11-13T09:40:23Z</time>
      </trkpt>
      <trkpt lat="47.3981" lon="6.80348">
        <ele>503.08</ele>
        <time>2016-11-13T09:40:25Z</time>
      </trkpt>
      <trkpt lat="47.39785" lon="6.80353">
        <ele>504.96</ele>
        <time>2016-11-13T09:40:27Z</time>
      </trkpt>
      <trkpt lat="47.39758" lon="6.80364">
        <ele>507.39</ele>
        <time>2016-11-13T09:40:29Z</time>
      </trkpt>
      <trkpt lat="47.39736" lon="6.80368">
        <ele>508.91</ele>
        <time>2016-11-13T09:40:31Z</time>
      </trkpt>
      <trkpt lat="47.39718" lon="6.80368">
        <ele>508.46</ele>
        <time>2016-11-13T09:40:33Z</time>
      </trkpt>
      <trkpt lat="47.39698" lon="6.80353">
        <ele>505.58</ele>
        <time>2016-11-13T09:40:36Z</time>
      </trkpt>
      <trkpt lat="47.39681" lon="6.80336">
        <ele>506.17</ele>
        <time>2016-11-13T09:40:39Z</time>
      </trkpt>
      <trkpt lat="47.39663" lon="6.80315">
        <ele>502.83</ele>
        <time>2016-11-13T09:40:42Z</time>
      </trkpt>
      <trkpt lat="47.39648" lon="6.803">
        <ele>501.85</ele>
        <time>2016-11-13T09:40:44Z</time>
      </trkpt>
      <trkpt lat="47.39626" lon="6.80281">
        <ele>499.94</ele>
        <time>2016-11-13T09:40:47Z</time>
      </trkpt>
      <trkpt lat="47.39604" lon="6.80265">
        <ele>493.59</ele>
        <time>2016-11-13T09:40:50Z</time>
      </trkpt>
      <trkpt lat="47.3958" lon="6.80251">
        <ele>488.44</ele>
        <time>2016-11-13T09:40:53Z</time>
      </trkpt>
      <trkpt lat="47.39563" lon="6.80241">
        <ele>483.39</ele>
        <time>2016-11-13T09:40:55Z</time>
      </trkpt>
      <trkpt lat="47.39546" lon="6.8023">
        <ele>479.89</ele>
        <time>2016-11-13T09:40:57Z</time>
      </trkpt>
      <trkpt lat="47.39529" lon="6.80218">
        <ele>477.4</ele>
        <time>2016-11-13T09:40:59Z</time>
      </trkpt>
      <trkpt lat="47.39509" lon="6.80204">
        <ele>471.83</ele>
        <time>2016-11-13T09:41:01Z</time>
      </trkpt>
      <trkpt lat="47.39487" lon="6.80188">
        <ele>466.31</ele>
        <time>2016-11-13T09:41:03Z</time>
      </trkpt>
      <trkpt lat="47.39466" lon="6.80172">
        <ele>463.85</ele>
        <time>2016-11-13T09:41:05Z</time>
      </trkpt>
      <trkpt lat="47.39446" lon="6.80156">
        <ele>462.55</ele>
        <time>2016-11-13T09:41:07Z</time>
      </trkpt>
      <trkpt lat="47.39427" lon="6.80142">
        <ele>460.61</ele>
        <time>2016-11-13T09:41:09Z</time>
      </trkpt>
      <trkpt lat="47.39407" lon="6.80125">
        <ele>458.85</ele>
        <time>2016-11-13T09:41:11Z</time>
      </trkpt>
      <trkpt lat="47.39388" lon="6.80109">
        <ele>459.74</ele>
        <time>2016-11-13T09:41:13Z</time>
      </trkpt>
      <trkpt lat="47.3937" lon="6.80092">
        <ele>458.4</ele>
        <time>2016-11-13T09:41:15Z</time>
      </trkpt>
      <trkpt lat="47.39352" lon="6.80076">
        <ele>457.35</ele>
        <time>2016-11-13T09:41:17Z</time>
      </trkpt>
      <trkpt lat="47.39335" lon="6.80061">
        <ele>457.16</ele>
        <time>2016-11-13T09:41:19Z</time>
      </trkpt>
      <trkpt lat="47.39319" lon="6.80046">
        <ele>458.46</ele>
        <time>2016-11-13T09:41:21Z</time>
      </trkpt>
      <trkpt lat="47.39302" lon="6.80029">
        <ele>458.39</ele>
        <time>2016-11-13T09:41:23Z</time>
      </trkpt>
      <trkpt lat="47.39285" lon="6.80011">
        <ele>457</ele>
        <time>2016-11-13T09:41:25Z</time>
      </trkpt>
      <trkpt lat="47.39268" lon="6.79991">
        <ele>454.82</ele>
        <time>2016-11-13T09:41:27Z</time>
      </trkpt>
      <trkpt lat="47.39254" lon="6.79972">
        <ele>451.68</ele>
        <time>2016-11-13T09:41:29Z</time>
      </trkpt>
      <trkpt lat="47.39238" lon="6.79955">
        <ele>448.94</ele>
        <time>2016-11-13T09:41:31Z</time>
      </trkpt>
      <trkpt lat="47.39221" lon="6.79937">
        <ele>447.29</ele>
        <time>2016-11-13T09:41:33Z</time>
      </trkpt>
      <trkpt lat="47.39199" lon="6.79916">
        <ele>443.74</ele>
        <time>2016-11-13T09:41:36Z</time>
      </trkpt>
      <trkpt lat="47.39182" lon="6.79902">
        <ele>441.98</ele>
        <time>2016-11-13T09:41:38Z</time>
      </trkpt>
      <trkpt lat="47.39164" lon="6.79889">
        <ele>439.47</ele>
        <time>2016-11-13T09:41:40Z</time>
      </trkpt>
      <trkpt lat="47.39142" lon="6.79881">
        <ele>436.26</ele>
        <time>2016-11-13T09:41:42Z</time>
      </trkpt>
      <trkpt lat="47.39121" lon="6.79875">
        <ele>435.91</ele>
        <time>2016-11-13T09:41:44Z</time>
      </trkpt>
      <trkpt lat="47.39102" lon="6.79874">
        <ele>435.8</ele>
        <time>2016-11-13T09:41:46Z</time>
      </trkpt>
      <trkpt lat="47.3908" lon="6.79878">
        <ele>435.09</ele>
        <time>2016-11-13T09:41:49Z</time>
      </trkpt>
      <trkpt lat="47.39053" lon="6.79891">
        <ele>433.66</ele>
        <time>2016-11-13T09:41:52Z</time>
      </trkpt>
      <trkpt lat="47.39035" lon="6.79901">
        <ele>432.53</ele>
        <time>2016-11-13T09:41:54Z</time>
      </trkpt>
      <trkpt lat="47.39015" lon="6.79921">
        <ele>429.74</ele>
        <time>2016-11-13T09:41:57Z</time>
      </trkpt>
      <trkpt lat="47.38997" lon="6.79933">
        <ele>429.73</ele>
        <time>2016-11-13T09:42:01Z</time>
      </trkpt>
      <trkpt lat="47.38977" lon="6.79927">
        <ele>425.91</ele>
        <time>2016-11-13T09:42:06Z</time>
      </trkpt>
      <trkpt lat="47.38955" lon="6.7992">
        <ele>418.53</ele>
        <time>2016-11-13T09:42:10Z</time>
      </trkpt>
      <trkpt lat="47.38938" lon="6.79912">
        <ele>412.3</ele>
        <time>2016-11-13T09:42:13Z</time>
      </trkpt>
      <trkpt lat="47.38915" lon="6.79901">
        <ele>405.86</ele>
        <time>2016-11-13T09:42:16Z</time>
      </trkpt>
      <trkpt lat="47.38899" lon="6.79891">
        <ele>401.19</ele>
        <time>2016-11-13T09:42:18Z</time>
      </trkpt>
      <trkpt lat="47.3888" lon="6.7988">
        <ele>398.56</ele>
        <time>2016-11-13T09:42:20Z</time>
      </trkpt>
      <trkpt lat="47.3886" lon="6.79861">
        <ele>395.75</ele>
        <time>2016-11-13T09:42:22Z</time>
      </trkpt>
      <trkpt lat="47.38836" lon="6.79835">
        <ele>392.92</ele>
        <time>2016-11-13T09:42:24Z</time>
      </trkpt>
      <trkpt lat="47.38814" lon="6.79812">
        <ele>389.4</ele>
        <time>2016-11-13T09:42:26Z</time>
      </trkpt>
      <trkpt lat="47.3879" lon="6.79788">
        <ele>386.66</ele>
        <time>2016-11-13T09:42:28Z</time>
      </trkpt>
      <trkpt lat="47.38766" lon="6.79764">
        <ele>384.78</ele>
        <time>2016-11-13T09:42:30Z</time>
      </trkpt>
      <trkpt lat="47.38744" lon="6.79746">
        <ele>383.4</ele>
        <time>2016-11-13T09:42:32Z</time>
      </trkpt>
      <trkpt lat="47.38723" lon="6.79727">
        <ele>381.78</ele>
        <time>2016-11-13T09:42:34Z</time>
      </trkpt>
      <trkpt lat="47.38707" lon="6.79711">
        <ele>379.84</ele>
        <time>2016-11-13T09:42:36Z</time>
      </trkpt>
      <trkpt lat="47.38682" lon="6.79693">
        <ele>379.68</ele>
        <time>2016-11-13T09:42:39Z</time>
      </trkpt>
      <trkpt lat="47.38663" lon="6.79688">
        <ele>378.7</ele>
        <time>2016-11-13T09:42:41Z</time>
      </trkpt>
      <trkpt lat="47.38641" lon="6.79694">
        <ele>379.18</ele>
        <time>2016-11-13T09:42:44Z</time>
      </trkpt>
      <trkpt lat="47.38637" lon="6.79662">
        <ele>376.03</ele>
        <time>2016-11-13T09:42:54Z</time>
      </trkpt>
      <trkpt lat="47.38646" lon="6.79638">
        <ele>373.89</ele>
        <time>2016-11-13T09:42:57Z</time>
      </trkpt>
      <trkpt lat="47.38654" lon="6.79612">
        <ele>374.96</ele>
        <time>2016-11-13T09:43:00Z</time>
      </trkpt>
      <trkpt lat="47.38661" lon="6.79583">
        <ele>376.98</ele>
        <time>2016-11-13T09:43:03Z</time>
      </trkpt>
      <trkpt lat="47.3867" lon="6.79555">
        <ele>379.94</ele>
        <time>2016-11-13T09:43:06Z</time>
      </trkpt>
      <trkpt lat="47.38677" lon="6.79529">
        <ele>380.12</ele>
        <time>2016-11-13T09:43:09Z</time>
      </trkpt>
      <trkpt lat="47.38676" lon="6.795">
        <ele>380.77</ele>
        <time>2016-11-13T09:43:12Z</time>
      </trkpt>
      <trkpt lat="47.38672" lon="6.79474">
        <ele>380.65</ele>
        <time>2016-11-13T09:43:15Z</time>
      </trkpt>
      <trkpt lat="47.38669" lon="6.79446">
        <ele>380.72</ele>
        <time>2016-11-13T09:43:18Z</time>
      </trkpt>
      <trkpt lat="47.38665" lon="6.79416">
        <ele>381.92</ele>
        <time>2016-11-13T09:43:21Z</time>
      </trkpt>
      <trkpt lat="47.38659" lon="6.79385">
        <ele>384.05</ele>
        <time>2016-11-13T09:43:24Z</time>
      </trkpt>
      <trkpt lat="47.38654" lon="6.79355">
        <ele>385.56</ele>
        <time>2016-11-13T09:43:27Z</time>
      </trkpt>
      <trkpt lat="47.38647" lon="6.79326">
        <ele>388.44</ele>
        <time>2016-11-13T09:43:30Z</time>
      </trkpt>
      <trkpt lat="47.3864" lon="6.79297">
        <ele>389.46</ele>
        <time>2016-11-13T09:43:33Z</time>
      </trkpt>
      <trkpt lat="47.38635" lon="6.79267">
        <ele>387.85</ele>
        <time>2016-11-13T09:43:36Z</time>
      </trkpt>
      <trkpt lat="47.38633" lon="6.7924">
        <ele>386.58</ele>
        <time>2016-11-13T09:43:39Z</time>
      </trkpt>
      <trkpt lat="47.38632" lon="6.7921">
        <ele>383.43</ele>
        <time>2016-11-13T09:43:42Z</time>
      </trkpt>
      <trkpt lat="47.38633" lon="6.79181">
        <ele>381.42</ele>
        <time>2016-11-13T09:43:45Z</time>
      </trkpt>
      <trkpt lat="47.38632" lon="6.79153">
        <ele>380.52</ele>
        <time>2016-11-13T09:43:48Z</time>
      </trkpt>
      <trkpt lat="47.38631" lon="6.79126">
        <ele>378.21</ele>
        <time>2016-11-13T09:43:51Z</time>
      </trkpt>
      <trkpt lat="47.3863" lon="6.79097">
        <ele>377.86</ele>
        <time>2016-11-13T09:43:54Z</time>
      </trkpt>
      <trkpt lat="47.38629" lon="6.79069">
        <ele>378.7</ele>
        <time>2016-11-13T09:43:57Z</time>
      </trkpt>
      <trkpt lat="47.38628" lon="6.7904">
        <ele>378.72</ele>
        <time>2016-11-13T09:44:00Z</time>
      </trkpt>
      <trkpt lat="47.38626" lon="6.7901">
        <ele>380.28</ele>
        <time>2016-11-13T09:44:03Z</time>
      </trkpt>
      <trkpt lat="47.38625" lon="6.78981">
        <ele>383.67</ele>
        <time>2016-11-13T09:44:06Z</time>
      </trkpt>
      <trkpt lat="47.38625" lon="6.78952">
        <ele>386.39</ele>
        <time>2016-11-13T09:44:09Z</time>
      </trkpt>
      <trkpt lat="47.38624" lon="6.78924">
        <ele>385.65</ele>
        <time>2016-11-13T09:44:12Z</time>
      </trkpt>
      <trkpt lat="47.38625" lon="6.78894">
        <ele>384.36</ele>
        <time>2016-11-13T09:44:16Z</time>
      </trkpt>
      <trkpt lat="47.38624" lon="6.78865">
        <ele>383.73</ele>
        <time>2016-11-13T09:44:22Z</time>
      </trkpt>
      <trkpt lat="47.38629" lon="6.78834">
        <ele>386.37</ele>
        <time>2016-11-13T09:44:27Z</time>
      </trkpt>
      <trkpt lat="47.38631" lon="6.78806">
        <ele>388</ele>
        <time>2016-11-13T09:44:31Z</time>
      </trkpt>
      <trkpt lat="47.38635" lon="6.78777">
        <ele>385.45</ele>
        <time>2016-11-13T09:44:35Z</time>
      </trkpt>
      <trkpt lat="47.38639" lon="6.78749">
        <ele>385.64</ele>
        <time>2016-11-13T09:44:39Z</time>
      </trkpt>
      <trkpt lat="47.3864" lon="6.78722">
        <ele>384.55</ele>
        <time>2016-11-13T09:44:43Z</time>
      </trkpt>
      <trkpt lat="47.38644" lon="6.78693">
        <ele>384.81</ele>
        <time>2016-11-13T09:44:46Z</time>
      </trkpt>
      <trkpt lat="47.38648" lon="6.78659">
        <ele>383.03</ele>
        <time>2016-11-13T09:44:50Z</time>
      </trkpt>
      <trkpt lat="47.38651" lon="6.7863">
        <ele>381.16</ele>
        <time>2016-11-13T09:44:53Z</time>
      </trkpt>
      <trkpt lat="47.38656" lon="6.78599">
        <ele>377.32</ele>
        <time>2016-11-13T09:44:57Z</time>
      </trkpt>
      <trkpt lat="47.3866" lon="6.78571">
        <ele>374.02</ele>
        <time>2016-11-13T09:45:00Z</time>
      </trkpt>
      <trkpt lat="47.38664" lon="6.78539">
        <ele>372.24</ele>
        <time>2016-11-13T09:45:03Z</time>
      </trkpt>
      <trkpt lat="47.38668" lon="6.78504">
        <ele>371.45</ele>
        <time>2016-11-13T09:45:06Z</time>
      </trkpt>
      <trkpt lat="47.38671" lon="6.78467">
        <ele>372.48</ele>
        <time>2016-11-13T09:45:09Z</time>
      </trkpt>
      <trkpt lat="47.38675" lon="6.78433">
        <ele>373.4</ele>
        <time>2016-11-13T09:45:12Z</time>
      </trkpt>
      <trkpt lat="47.38681" lon="6.78401">
        <ele>371.51</ele>
        <time>2016-11-13T09:45:15Z</time>
      </trkpt>
      <trkpt lat="47.38689" lon="6.78369">
        <ele>370.98</ele>
        <time>2016-11-13T09:45:18Z</time>
      </trkpt>
      <trkpt lat="47.38697" lon="6.78336">
        <ele>369.68</ele>
        <time>2016-11-13T09:45:21Z</time>
      </trkpt>
      <trkpt lat="47.38707" lon="6.78306">
        <ele>368.36</ele>
        <time>2016-11-13T09:45:24Z</time>
      </trkpt>
      <trkpt lat="47.38718" lon="6.78274">
        <ele>367.85</ele>
        <time>2016-11-13T09:45:27Z</time>
      </trkpt>
      <trkpt lat="47.38729" lon="6.78241">
        <ele>365.94</ele>
        <time>2016-11-13T09:45:30Z</time>
      </trkpt>
      <trkpt lat="47.38739" lon="6.78212">
        <ele>366.28</ele>
        <time>2016-11-13T09:45:33Z</time>
      </trkpt>
      <trkpt lat="47.3875" lon="6.78184">
        <ele>366.68</ele>
        <time>2016-11-13T09:45:36Z</time>
      </trkpt>
      <trkpt lat="47.38761" lon="6.78153">
        <ele>366.82</ele>
        <time>2016-11-13T09:45:39Z</time>
      </trkpt>
      <trkpt lat="47.38772" lon="6.78122">
        <ele>366.78</ele>
        <time>2016-11-13T09:45:42Z</time>
      </trkpt>
      <trkpt lat="47.38783" lon="6.78092">
        <ele>366.86</ele>
        <time>2016-11-13T09:45:45Z</time>
      </trkpt>
      <trkpt lat="47.38795" lon="6.78061">
        <ele>365.8</ele>
        <time>2016-11-13T09:45:48Z</time>
      </trkpt>
      <trkpt lat="47.38807" lon="6.78028">
        <ele>364.89</ele>
        <time>2016-11-13T09:45:51Z</time>
      </trkpt>
      <trkpt lat="47.38819" lon="6.77997">
        <ele>362.55</ele>
        <time>2016-11-13T09:45:54Z</time>
      </trkpt>
      <trkpt lat="47.38828" lon="6.77965">
        <ele>361.08</ele>
        <time>2016-11-13T09:45:57Z</time>
      </trkpt>
      <trkpt lat="47.38838" lon="6.77936">
        <ele>361.6</ele>
        <time>2016-11-13T09:46:00Z</time>
      </trkpt>
      <trkpt lat="47.38851" lon="6.77911">
        <ele>361.69</ele>
        <time>2016-11-13T09:46:03Z</time>
      </trkpt>
      <trkpt lat="47.38866" lon="6.77885">
        <ele>361.38</ele>
        <time>2016-11-13T09:46:06Z</time>
      </trkpt>
      <trkpt lat="47.38884" lon="6.77858">
        <ele>359.24</ele>
        <time>2016-11-13T09:46:09Z</time>
      </trkpt>
      <trkpt lat="47.38902" lon="6.77838">
        <ele>358.14</ele>
        <time>2016-11-13T09:46:12Z</time>
      </trkpt>
      <trkpt lat="47.38923" lon="6.77818">
        <ele>359.07</ele>
        <time>2016-11-13T09:46:15Z</time>
      </trkpt>
      <trkpt lat="47.38941" lon="6.77798">
        <ele>358.82</ele>
        <time>2016-11-13T09:46:18Z</time>
      </trkpt>
      <trkpt lat="47.38958" lon="6.77777">
        <ele>359.5</ele>
        <time>2016-11-13T09:46:21Z</time>
      </trkpt>
      <trkpt lat="47.38973" lon="6.77758">
        <ele>357.51</ele>
        <time>2016-11-13T09:46:24Z</time>
      </trkpt>
      <trkpt lat="47.38988" lon="6.77741">
        <ele>354.11</ele>
        <time>2016-11-13T09:46:27Z</time>
      </trkpt>
      <trkpt lat="47.39004" lon="6.77729">
        <ele>352.33</ele>
        <time>2016-11-13T09:46:30Z</time>
      </trkpt>
      <trkpt lat="47.39022" lon="6.77719">
        <ele>353.79</ele>
        <time>2016-11-13T09:46:33Z</time>
      </trkpt>
      <trkpt lat="47.3904" lon="6.77711">
        <ele>356.46</ele>
        <time>2016-11-13T09:46:36Z</time>
      </trkpt>
      <trkpt lat="47.39058" lon="6.77704">
        <ele>359.22</ele>
        <time>2016-11-13T09:46:39Z</time>
      </trkpt>
      <trkpt lat="47.39077" lon="6.77699">
        <ele>361.06</ele>
        <time>2016-11-13T09:46:42Z</time>
      </trkpt>
      <trkpt lat="47.39096" lon="6.77693">
        <ele>362.99</ele>
        <time>2016-11-13T09:46:45Z</time>
      </trkpt>
      <trkpt lat="47.39114" lon="6.77686">
        <ele>362.9</ele>
        <time>2016-11-13T09:46:48Z</time>
      </trkpt>
      <trkpt lat="47.39132" lon="6.77679">
        <ele>361.53</ele>
        <time>2016-11-13T09:46:51Z</time>
      </trkpt>
      <trkpt lat="47.3915" lon="6.77674">
        <ele>359.24</ele>
        <time>2016-11-13T09:46:54Z</time>
      </trkpt>
      <trkpt lat="47.39169" lon="6.77669">
        <ele>358.25</ele>
        <time>2016-11-13T09:46:57Z</time>
      </trkpt>
      <trkpt lat="47.39188" lon="6.77663">
        <ele>357.34</ele>
        <time>2016-11-13T09:47:00Z</time>
      </trkpt>
      <trkpt lat="47.39206" lon="6.77653">
        <ele>358.18</ele>
        <time>2016-11-13T09:47:03Z</time>
      </trkpt>
      <trkpt lat="47.39227" lon="6.77648">
        <ele>358.83</ele>
        <time>2016-11-13T09:47:07Z</time>
      </trkpt>
      <trkpt lat="47.39245" lon="6.77644">
        <ele>357.11</ele>
        <time>2016-11-13T09:47:10Z</time>
      </trkpt>
      <trkpt lat="47.39265" lon="6.77639">
        <ele>354.73</ele>
        <time>2016-11-13T09:47:13Z</time>
      </trkpt>
      <trkpt lat="47.39282" lon="6.77629">
        <ele>353.31</ele>
        <time>2016-11-13T09:47:16Z</time>
      </trkpt>
      <trkpt lat="47.39295" lon="6.7761">
        <ele>352.57</ele>
        <time>2016-11-13T09:47:19Z</time>
      </trkpt>
      <trkpt lat="47.39304" lon="6.77582">
        <ele>351.68</ele>
        <time>2016-11-13T09:47:22Z</time>
      </trkpt>
      <trkpt lat="47.39306" lon="6.77546">
        <ele>352.04</ele>
        <time>2016-11-13T09:47:25Z</time>
      </trkpt>
      <trkpt lat="47.39306" lon="6.77509">
        <ele>351.13</ele>
        <time>2016-11-13T09:47:28Z</time>
      </trkpt>
      <trkpt lat="47.39305" lon="6.77476">
        <ele>350.45</ele>
        <time>2016-11-13T09:47:31Z</time>
      </trkpt>
      <trkpt lat="47.39304" lon="6.77445">
        <ele>348.87</ele>
        <time>2016-11-13T09:47:34Z</time>
      </trkpt>
      <trkpt lat="47.39316" lon="6.77422">
        <ele>348.58</ele>
        <time>2016-11-13T09:47:38Z</time>
      </trkpt>
      <trkpt lat="47.3934" lon="6.77416">
        <ele>349.44</ele>
        <time>2016-11-13T09:47:42Z</time>
      </trkpt>
      <trkpt lat="47.3936" lon="6.7741">
        <ele>353.22</ele>
        <time>2016-11-13T09:47:45Z</time>
      </trkpt>
      <trkpt lat="47.3938" lon="6.77404">
        <ele>353.05</ele>
        <time>2016-11-13T09:47:48Z</time>
      </trkpt>
      <trkpt lat="47.39401" lon="6.77398">
        <ele>356.52</ele>
        <time>2016-11-13T09:47:51Z</time>
      </trkpt>
      <trkpt lat="47.39422" lon="6.7739">
        <ele>357.33</ele>
        <time>2016-11-13T09:47:54Z</time>
      </trkpt>
      <trkpt lat="47.39442" lon="6.77383">
        <ele>354.87</ele>
        <time>2016-11-13T09:47:57Z</time>
      </trkpt>
      <trkpt lat="47.39462" lon="6.77374">
        <ele>353.08</ele>
        <time>2016-11-13T09:48:00Z</time>
      </trkpt>
      <trkpt lat="47.39483" lon="6.77365">
        <ele>351.5</ele>
        <time>2016-11-13T09:48:03Z</time>
      </trkpt>
      <trkpt lat="47.39502" lon="6.77356">
        <ele>348.99</ele>
        <time>2016-11-13T09:48:06Z</time>
      </trkpt>
      <trkpt lat="47.3952" lon="6.77348">
        <ele>348.13</ele>
        <time>2016-11-13T09:48:09Z</time>
      </trkpt>
      <trkpt lat="47.39539" lon="6.77338">
        <ele>347.72</ele>
        <time>2016-11-13T09:48:12Z</time>
      </trkpt>
      <trkpt lat="47.39555" lon="6.77323">
        <ele>346.64</ele>
        <time>2016-11-13T09:48:15Z</time>
      </trkpt>
      <trkpt lat="47.39571" lon="6.77304">
        <ele>344.93</ele>
        <time>2016-11-13T09:48:18Z</time>
      </trkpt>
      <trkpt lat="47.39587" lon="6.77288">
        <ele>344.2</ele>
        <time>2016-11-13T09:48:21Z</time>
      </trkpt>
      <trkpt lat="47.39603" lon="6.77274">
        <ele>347.22</ele>
        <time>2016-11-13T09:48:24Z</time>
      </trkpt>
      <trkpt lat="47.3962" lon="6.77262">
        <ele>349.15</ele>
        <time>2016-11-13T09:48:27Z</time>
      </trkpt>
      <trkpt lat="47.39637" lon="6.77251">
        <ele>349.88</ele>
        <time>2016-11-13T09:48:30Z</time>
      </trkpt>
      <trkpt lat="47.39653" lon="6.77238">
        <ele>349.23</ele>
        <time>2016-11-13T09:48:33Z</time>
      </trkpt>
      <trkpt lat="47.39673" lon="6.77222">
        <ele>349.59</ele>
        <time>2016-11-13T09:48:37Z</time>
      </trkpt>
      <trkpt lat="47.39692" lon="6.77211">
        <ele>349.51</ele>
        <time>2016-11-13T09:48:40Z</time>
      </trkpt>
      <trkpt lat="47.3971" lon="6.77204">
        <ele>350.08</ele>
        <time>2016-11-13T09:48:43Z</time>
      </trkpt>
      <trkpt lat="47.39731" lon="6.77199">
        <ele>348.76</ele>
        <time>2016-11-13T09:48:47Z</time>
      </trkpt>
      <trkpt lat="47.39753" lon="6.77197">
        <ele>347.58</ele>
        <time>2016-11-13T09:48:52Z</time>
      </trkpt>
      <trkpt lat="47.39772" lon="6.77191">
        <ele>346.26</ele>
        <time>2016-11-13T09:48:56Z</time>
      </trkpt>
      <trkpt lat="47.3979" lon="6.77186">
        <ele>344.95</ele>
        <time>2016-11-13T09:49:01Z</time>
      </trkpt>
      <trkpt lat="47.39811" lon="6.7718">
        <ele>345.82</ele>
        <time>2016-11-13T09:49:06Z</time>
      </trkpt>
      <trkpt lat="47.39832" lon="6.77176">
        <ele>347.52</ele>
        <time>2016-11-13T09:49:11Z</time>
      </trkpt>
      <trkpt lat="47.39852" lon="6.77175">
        <ele>350.56</ele>
        <time>2016-11-13T09:49:16Z</time>
      </trkpt>
      <trkpt lat="47.39873" lon="6.7717">
        <ele>350.91</ele>
        <time>2016-11-13T09:49:21Z</time>
      </trkpt>
      <trkpt lat="47.39891" lon="6.77164">
        <ele>353.24</ele>
        <time>2016-11-13T09:49:25Z</time>
      </trkpt>
      <trkpt lat="47.39911" lon="6.77158">
        <ele>355.47</ele>
        <time>2016-11-13T09:49:29Z</time>
      </trkpt>
      <trkpt lat="47.39931" lon="6.77153">
        <ele>357</ele>
        <time>2016-11-13T09:49:33Z</time>
      </trkpt>
      <trkpt lat="47.39952" lon="6.77151">
        <ele>358.53</ele>
        <time>2016-11-13T09:49:37Z</time>
      </trkpt>
      <trkpt lat="47.39974" lon="6.77151">
        <ele>358.86</ele>
        <time>2016-11-13T09:49:41Z</time>
      </trkpt>
      <trkpt lat="47.39995" lon="6.77152">
        <ele>355.75</ele>
        <time>2016-11-13T09:49:45Z</time>
      </trkpt>
      <trkpt lat="47.40017" lon="6.77154">
        <ele>351.59</ele>
        <time>2016-11-13T09:49:49Z</time>
      </trkpt>
      <trkpt lat="47.40037" lon="6.77156">
        <ele>349.13</ele>
        <time>2016-11-13T09:49:53Z</time>
      </trkpt>
      <trkpt lat="47.4006" lon="6.77159">
        <ele>348.11</ele>
        <time>2016-11-13T09:49:57Z</time>
      </trkpt>
      <trkpt lat="47.40083" lon="6.77162">
        <ele>347.59</ele>
        <time>2016-11-13T09:50:01Z</time>
      </trkpt>
      <trkpt lat="47.40105" lon="6.77163">
        <ele>348.52</ele>
        <time>2016-11-13T09:50:05Z</time>
      </trkpt>
      <trkpt lat="47.40123" lon="6.77165">
        <ele>348.19</ele>
        <time>2016-11-13T09:50:08Z</time>
      </trkpt>
      <trkpt lat="47.40146" lon="6.77169">
        <ele>346.53</ele>
        <time>2016-11-13T09:50:12Z</time>
      </trkpt>
      <trkpt lat="47.40168" lon="6.77169">
        <ele>345.71</ele>
        <time>2016-11-13T09:50:16Z</time>
      </trkpt>
      <trkpt lat="47.40192" lon="6.77168">
        <ele>347.81</ele>
        <time>2016-11-13T09:50:20Z</time>
      </trkpt>
      <trkpt lat="47.40212" lon="6.77167">
        <ele>348.7</ele>
        <time>2016-11-13T09:50:23Z</time>
      </trkpt>
      <trkpt lat="47.40234" lon="6.77155">
        <ele>346.75</ele>
        <time>2016-11-13T09:50:27Z</time>
      </trkpt>
      <trkpt lat="47.40254" lon="6.77135">
        <ele>347.86</ele>
        <time>2016-11-13T09:50:31Z</time>
      </trkpt>
      <trkpt lat="47.40275" lon="6.77122">
        <ele>348.9</ele>
        <time>2016-11-13T09:50:34Z</time>
      </trkpt>
      <trkpt lat="47.40298" lon="6.77115">
        <ele>350.82</ele>
        <time>2016-11-13T09:50:37Z</time>
      </trkpt>
      <trkpt lat="47.40318" lon="6.77115">
        <ele>353.83</ele>
        <time>2016-11-13T09:50:40Z</time>
      </trkpt>
      <trkpt lat="47.40337" lon="6.77113">
        <ele>354.7</ele>
        <time>2016-11-13T09:50:43Z</time>
      </trkpt>
      <trkpt lat="47.4036" lon="6.77106">
        <ele>353.61</ele>
        <time>2016-11-13T09:50:47Z</time>
      </trkpt>
      <trkpt lat="47.40383" lon="6.77098">
        <ele>349.5</ele>
        <time>2016-11-13T09:50:51Z</time>
      </trkpt>
      <trkpt lat="47.40407" lon="6.771">
        <ele>350.45</ele>
        <time>2016-11-13T09:50:54Z</time>
      </trkpt>
      <trkpt lat="47.40432" lon="6.77106">
        <ele>350.72</ele>
        <time>2016-11-13T09:50:57Z</time>
      </trkpt>
      <trkpt lat="47.40456" lon="6.77114">
        <ele>350.61</ele>
        <time>2016-11-13T09:51:00Z</time>
      </trkpt>
      <trkpt lat="47.4048" lon="6.7712">
        <ele>350.63</ele>
        <time>2016-11-13T09:51:03Z</time>
      </trkpt>
      <trkpt lat="47.40503" lon="6.77124">
        <ele>348.63</ele>
        <time>2016-11-13T09:51:06Z</time>
      </trkpt>
      <trkpt lat="47.40521" lon="6.77126">
        <ele>347.52</ele>
        <time>2016-11-13T09:51:09Z</time>
      </trkpt>
      <trkpt lat="47.40544" lon="6.77127">
        <ele>348.91</ele>
        <time>2016-11-13T09:51:13Z</time>
      </trkpt>
      <trkpt lat="47.40563" lon="6.77129">
        <ele>348.75</ele>
        <time>2016-11-13T09:51:16Z</time>
      </trkpt>
      <trkpt lat="47.40585" lon="6.7713">
        <ele>346.45</ele>
        <time>2016-11-13T09:51:20Z</time>
      </trkpt>
      <trkpt lat="47.40604" lon="6.77134">
        <ele>348</ele>
        <time>2016-11-13T09:51:23Z</time>
      </trkpt>
      <trkpt lat="47.40627" lon="6.77142">
        <ele>349.24</ele>
        <time>2016-11-13T09:51:27Z</time>
      </trkpt>
      <trkpt lat="47.40648" lon="6.77152">
        <ele>345.42</ele>
        <time>2016-11-13T09:51:31Z</time>
      </trkpt>
      <trkpt lat="47.40665" lon="6.77166">
        <ele>344.01</ele>
        <time>2016-11-13T09:51:35Z</time>
      </trkpt>
      <trkpt lat="47.40684" lon="6.77185">
        <ele>344.81</ele>
        <time>2016-11-13T09:51:39Z</time>
      </trkpt>
      <trkpt lat="47.40702" lon="6.77204">
        <ele>343.16</ele>
        <time>2016-11-13T09:51:43Z</time>
      </trkpt>
      <trkpt lat="47.40721" lon="6.77224">
        <ele>342.13</ele>
        <time>2016-11-13T09:51:47Z</time>
      </trkpt>
      <trkpt lat="47.4074" lon="6.77245">
        <ele>342.29</ele>
        <time>2016-11-13T09:51:51Z</time>
      </trkpt>
      <trkpt lat="47.40753" lon="6.77264">
        <ele>342.67</ele>
        <time>2016-11-13T09:51:54Z</time>
      </trkpt>
      <trkpt lat="47.40767" lon="6.7729">
        <ele>344.2</ele>
        <time>2016-11-13T09:51:58Z</time>
      </trkpt>
      <trkpt lat="47.40777" lon="6.77312">
        <ele>344.36</ele>
        <time>2016-11-13T09:52:01Z</time>
      </trkpt>
      <trkpt lat="47.40792" lon="6.77338">
        <ele>345.41</ele>
        <time>2016-11-13T09:52:05Z</time>
      </trkpt>
      <trkpt lat="47.40802" lon="6.77369">
        <ele>345.89</ele>
        <time>2016-11-13T09:52:09Z</time>
      </trkpt>
      <trkpt lat="47.40813" lon="6.77398">
        <ele>346.58</ele>
        <time>2016-11-13T09:52:13Z</time>
      </trkpt>
      <trkpt lat="47.40825" lon="6.77426">
        <ele>347.41</ele>
        <time>2016-11-13T09:52:17Z</time>
      </trkpt>
      <trkpt lat="47.40838" lon="6.77454">
        <ele>346.82</ele>
        <time>2016-11-13T09:52:21Z</time>
      </trkpt>
      <trkpt lat="47.40851" lon="6.77482">
        <ele>349.63</ele>
        <time>2016-11-13T09:52:25Z</time>
      </trkpt>
      <trkpt lat="47.40862" lon="6.77504">
        <ele>350.17</ele>
        <time>2016-11-13T09:52:28Z</time>
      </trkpt>
      <trkpt lat="47.40873" lon="6.77527">
        <ele>346.66</ele>
        <time>2016-11-13T09:52:31Z</time>
      </trkpt>
      <trkpt lat="47.40884" lon="6.77556">
        <ele>342.78</ele>
        <time>2016-11-13T09:52:35Z</time>
      </trkpt>
      <trkpt lat="47.40896" lon="6.77584">
        <ele>340.19</ele>
        <time>2016-11-13T09:52:39Z</time>
      </trkpt>
      <trkpt lat="47.40909" lon="6.7761">
        <ele>342.75</ele>
        <time>2016-11-13T09:52:43Z</time>
      </trkpt>
      <trkpt lat="47.40922" lon="6.77637">
        <ele>343.8</ele>
        <time>2016-11-13T09:52:47Z</time>
      </trkpt>
      <trkpt lat="47.40932" lon="6.77665">
        <ele>344.41</ele>
        <time>2016-11-13T09:52:51Z</time>
      </trkpt>
      <trkpt lat="47.40941" lon="6.77696">
        <ele>345.15</ele>
        <time>2016-11-13T09:52:55Z</time>
      </trkpt>
      <trkpt lat="47.40953" lon="6.77723">
        <ele>346.68</ele>
        <time>2016-11-13T09:52:59Z</time>
      </trkpt>
      <trkpt lat="47.40969" lon="6.77749">
        <ele>350.49</ele>
        <time>2016-11-13T09:53:03Z</time>
      </trkpt>
      <trkpt lat="47.40984" lon="6.77767">
        <ele>352.6</ele>
        <time>2016-11-13T09:53:06Z</time>
      </trkpt>
      <trkpt lat="47.41004" lon="6.77768">
        <ele>350.98</ele>
        <time>2016-11-13T09:53:09Z</time>
      </trkpt>
      <trkpt lat="47.41018" lon="6.77751">
        <ele>348.18</ele>
        <time>2016-11-13T09:53:12Z</time>
      </trkpt>
      <trkpt lat="47.41033" lon="6.77724">
        <ele>346.16</ele>
        <time>2016-11-13T09:53:16Z</time>
      </trkpt>
      <trkpt lat="47.4105" lon="6.77699">
        <ele>345.69</ele>
        <time>2016-11-13T09:53:20Z</time>
      </trkpt>
      <trkpt lat="47.41066" lon="6.77678">
        <ele>345.44</ele>
        <time>2016-11-13T09:53:23Z</time>
      </trkpt>
      <trkpt lat="47.41083" lon="6.77658">
        <ele>343.83</ele>
        <time>2016-11-13T09:53:26Z</time>
      </trkpt>
      <trkpt lat="47.41101" lon="6.77638">
        <ele>341.71</ele>
        <time>2016-11-13T09:53:29Z</time>
      </trkpt>
      <trkpt lat="47.41116" lon="6.7762">
        <ele>341.25</ele>
        <time>2016-11-13T09:53:32Z</time>
      </trkpt>
      <trkpt lat="47.41131" lon="6.776">
        <ele>344.34</ele>
        <time>2016-11-13T09:53:36Z</time>
      </trkpt>
      <trkpt lat="47.4115" lon="6.77609">
        <ele>350.6</ele>
        <time>2016-11-13T09:53:41Z</time>
      </trkpt>
      <trkpt lat="47.41165" lon="6.77626">
        <ele>352.28</ele>
        <time>2016-11-13T09:53:45Z</time>
      </trkpt>
      <trkpt lat="47.4118" lon="6.77642">
        <ele>350.19</ele>
        <time>2016-11-13T09:53:49Z</time>
      </trkpt>
      <trkpt lat="47.41197" lon="6.77659">
        <ele>348.73</ele>
        <time>2016-11-13T09:53:53Z</time>
      </trkpt>
      <trkpt lat="47.41212" lon="6.77675">
        <ele>350.33</ele>
        <time>2016-11-13T09:53:57Z</time>
      </trkpt>
      <trkpt lat="47.41231" lon="6.77696">
        <ele>350.77</ele>
        <time>2016-11-13T09:54:01Z</time>
      </trkpt>
      <trkpt lat="47.41247" lon="6.77716">
        <ele>349.9</ele>
        <time>2016-11-13T09:54:05Z</time>
      </trkpt>
      <trkpt lat="47.41261" lon="6.77734">
        <ele>348.63</ele>
        <time>2016-11-13T09:54:08Z</time>
      </trkpt>
      <trkpt lat="47.41278" lon="6.77754">
        <ele>348.24</ele>
        <time>2016-11-13T09:54:12Z</time>
      </trkpt>
      <trkpt lat="47.41293" lon="6.77778">
        <ele>347.07</ele>
        <time>2016-11-13T09:54:16Z</time>
      </trkpt>
      <trkpt lat="47.41304" lon="6.77801">
        <ele>343.38</ele>
        <time>2016-11-13T09:54:20Z</time>
      </trkpt>
      <trkpt lat="47.41314" lon="6.77828">
        <ele>338.86</ele>
        <time>2016-11-13T09:54:24Z</time>
      </trkpt>
      <trkpt lat="47.41324" lon="6.77854">
        <ele>337.99</ele>
        <time>2016-11-13T09:54:28Z</time>
      </trkpt>
      <trkpt lat="47.41334" lon="6.7788">
        <ele>337.51</ele>
        <time>2016-11-13T09:54:32Z</time>
      </trkpt>
      <trkpt lat="47.41346" lon="6.77906">
        <ele>338.35</ele>
        <time>2016-11-13T09:54:36Z</time>
      </trkpt>
      <trkpt lat="47.41354" lon="6.77935">
        <ele>340.92</ele>
        <time>2016-11-13T09:54:41Z</time>
      </trkpt>
      <trkpt lat="47.41358" lon="6.77963">
        <ele>341.96</ele>
        <time>2016-11-13T09:54:45Z</time>
      </trkpt>
      <trkpt lat="47.41359" lon="6.77996">
        <ele>340.57</ele>
        <time>2016-11-13T09:54:50Z</time>
      </trkpt>
      <trkpt lat="47.41363" lon="6.78022">
        <ele>339.59</ele>
        <time>2016-11-13T09:54:54Z</time>
      </trkpt>
      <trkpt lat="47.41371" lon="6.7805">
        <ele>340.83</ele>
        <time>2016-11-13T09:54:58Z</time>
      </trkpt>
      <trkpt lat="47.41373" lon="6.78078">
        <ele>341.88</ele>
        <time>2016-11-13T09:55:02Z</time>
      </trkpt>
      <trkpt lat="47.4139" lon="6.78096">
        <ele>339.59</ele>
        <time>2016-11-13T09:55:07Z</time>
      </trkpt>
      <trkpt lat="47.41405" lon="6.78111">
        <ele>339.55</ele>
        <time>2016-11-13T09:55:11Z</time>
      </trkpt>
      <trkpt lat="47.41424" lon="6.78129">
        <ele>338.17</ele>
        <time>2016-11-13T09:55:16Z</time>
      </trkpt>
      <trkpt lat="47.41441" lon="6.78142">
        <ele>335.79</ele>
        <time>2016-11-13T09:55:20Z</time>
      </trkpt>
      <trkpt lat="47.41461" lon="6.78158">
        <ele>336.03</ele>
        <time>2016-11-13T09:55:24Z</time>
      </trkpt>
      <trkpt lat="47.41478" lon="6.78171">
        <ele>335.99</ele>
        <time>2016-11-13T09:55:28Z</time>
      </trkpt>
      <trkpt lat="47.41496" lon="6.78185">
        <ele>335.17</ele>
        <time>2016-11-13T09:55:33Z</time>
      </trkpt>
      <trkpt lat="47.41492" lon="6.78215">
        <ele>332.39</ele>
        <time>2016-11-13T09:55:37Z</time>
      </trkpt>
      <trkpt lat="47.41485" lon="6.78244">
        <ele>331.91</ele>
        <time>2016-11-13T09:55:41Z</time>
      </trkpt>
      <trkpt lat="47.41479" lon="6.78274">
        <ele>333.07</ele>
        <time>2016-11-13T09:55:45Z</time>
      </trkpt>
      <trkpt lat="47.41473" lon="6.78303">
        <ele>335.73</ele>
        <time>2016-11-13T09:55:49Z</time>
      </trkpt>
      <trkpt lat="47.41466" lon="6.7833">
        <ele>339.86</ele>
        <time>2016-11-13T09:55:53Z</time>
      </trkpt>
      <trkpt lat="47.4146" lon="6.78358">
        <ele>343.43</ele>
        <time>2016-11-13T09:55:57Z</time>
      </trkpt>
      <trkpt lat="47.41452" lon="6.78387">
        <ele>347.81</ele>
        <time>2016-11-13T09:56:01Z</time>
      </trkpt>
      <trkpt lat="47.41444" lon="6.78415">
        <ele>348.54</ele>
        <time>2016-11-13T09:56:05Z</time>
      </trkpt>
      <trkpt lat="47.41434" lon="6.7844">
        <ele>351</ele>
        <time>2016-11-13T09:56:09Z</time>
      </trkpt>
      <trkpt lat="47.41416" lon="6.78431">
        <ele>349.77</ele>
        <time>2016-11-13T09:56:14Z</time>
      </trkpt>
      <trkpt lat="47.41407" lon="6.784">
        <ele>348.85</ele>
        <time>2016-11-13T09:56:41Z</time>
      </trkpt>
    </trkseg>
  </trk>
</gpx>